<?xml version='1.0' encoding='UTF-8'?><gpx version="1.1" creator="JPX - https://github.com/jenetics/jpx" xmlns="http://www.topografix.com/GPX/1/1"><trk><trkseg><trkpt lat="41.079256" lon="16.7827099"><ele>83.0</ele><time>2026-04-26T07:28:14.977Z</time></trkpt><trkpt lat="41.0791788" lon="16.7827288"><ele>83.0</ele><time>2026-04-26T07:28:20.042Z</time></trkpt><trkpt lat="41.0791075" lon="16.7827324"><ele>83.0</ele><time>2026-04-26T07:28:22.044Z</time></trkpt><trkpt lat="41.0790132" lon="16.7827266"><ele>83.0</ele><time>2026-04-26T07:28:25.044Z</time></trkpt><trkpt lat="41.078865" lon="16.78273"><ele>83.0</ele><time>2026-04-26T07:28:26.977Z</time></trkpt><trkpt lat="41.0787783" lon="16.782685"><ele>83.0</ele><time>2026-04-26T07:28:28.978Z</time></trkpt><trkpt lat="41.0787033" lon="16.782645"><ele>83.0</ele><time>2026-04-26T07:28:30.978Z</time></trkpt><trkpt lat="41.0786167" lon="16.7826067"><ele>83.0</ele><time>2026-04-26T07:28:32.978Z</time></trkpt><trkpt lat="41.0785283" lon="16.7825767"><ele>83.0</ele><time>2026-04-26T07:28:34.977Z</time></trkpt><trkpt lat="41.0784517" lon="16.78253"><ele>83.0</ele><time>2026-04-26T07:28:36.977Z</time></trkpt><trkpt lat="41.07837" lon="16.7824783"><ele>83.0</ele><time>2026-04-26T07:28:38.978Z</time></trkpt><trkpt lat="41.0782967" lon="16.7824217"><ele>83.2</ele><time>2026-04-26T07:28:40.977Z</time></trkpt><trkpt lat="41.0782233" lon="16.7823767"><ele>83.4</ele><time>2026-04-26T07:28:42.977Z</time></trkpt><trkpt lat="41.0781467" lon="16.7823183"><ele>83.60000000000001</ele><time>2026-04-26T07:28:44.977Z</time></trkpt><trkpt lat="41.0780683" lon="16.7822433"><ele>83.80000000000001</ele><time>2026-04-26T07:28:46.978Z</time></trkpt><trkpt lat="41.078" lon="16.78215"><ele>84.0</ele><time>2026-04-26T07:28:48.977Z</time></trkpt><trkpt lat="41.0779367" lon="16.782065"><ele>84.0</ele><time>2026-04-26T07:28:50.978Z</time></trkpt><trkpt lat="41.0778683" lon="16.781985"><ele>84.0</ele><time>2026-04-26T07:28:52.977Z</time></trkpt><trkpt lat="41.0778067" lon="16.781915"><ele>84.0</ele><time>2026-04-26T07:28:54.977Z</time></trkpt><trkpt lat="41.0777333" lon="16.7818483"><ele>84.0</ele><time>2026-04-26T07:28:56.977Z</time></trkpt><trkpt lat="41.0776717" lon="16.781795"><ele>84.0</ele><time>2026-04-26T07:28:58.978Z</time></trkpt><trkpt lat="41.0776167" lon="16.7817367"><ele>84.0</ele><time>2026-04-26T07:29:00.978Z</time></trkpt><trkpt lat="41.0775483" lon="16.7816583"><ele>84.0</ele><time>2026-04-26T07:29:03.977Z</time></trkpt><trkpt lat="41.07749" lon="16.7816017"><ele>84.0</ele><time>2026-04-26T07:29:06.978Z</time></trkpt><trkpt lat="41.0774233" lon="16.781515"><ele>84.0</ele><time>2026-04-26T07:29:09.977Z</time></trkpt><trkpt lat="41.0773667" lon="16.7814267"><ele>84.0</ele><time>2026-04-26T07:29:11.977Z</time></trkpt><trkpt lat="41.0773033" lon="16.7813533"><ele>84.0</ele><time>2026-04-26T07:29:13.978Z</time></trkpt><trkpt lat="41.077245" lon="16.7812833"><ele>84.0</ele><time>2026-04-26T07:29:15.978Z</time></trkpt><trkpt lat="41.0771883" lon="16.7812083"><ele>84.0</ele><time>2026-04-26T07:29:17.978Z</time></trkpt><trkpt lat="41.0771367" lon="16.7811233"><ele>84.0</ele><time>2026-04-26T07:29:19.977Z</time></trkpt><trkpt lat="41.07708" lon="16.7810433"><ele>84.0</ele><time>2026-04-26T07:29:21.978Z</time></trkpt><trkpt lat="41.0770283" lon="16.7809567"><ele>84.0</ele><time>2026-04-26T07:29:23.977Z</time></trkpt><trkpt lat="41.0769717" lon="16.7808883"><ele>84.0</ele><time>2026-04-26T07:29:25.978Z</time></trkpt><trkpt lat="41.0769183" lon="16.7808"><ele>84.0</ele><time>2026-04-26T07:29:27.978Z</time></trkpt><trkpt lat="41.076865" lon="16.78072"><ele>83.83333333333333</ele><time>2026-04-26T07:29:29.977Z</time></trkpt><trkpt lat="41.0768033" lon="16.7806417"><ele>83.66666666666667</ele><time>2026-04-26T07:29:31.977Z</time></trkpt><trkpt lat="41.0767433" lon="16.7805583"><ele>83.5</ele><time>2026-04-26T07:29:33.977Z</time></trkpt><trkpt lat="41.0766767" lon="16.7804817"><ele>83.33333333333334</ele><time>2026-04-26T07:29:35.978Z</time></trkpt><trkpt lat="41.076615" lon="16.7805817"><ele>83.16666666666667</ele><time>2026-04-26T07:29:39.977Z</time></trkpt><trkpt lat="41.076585" lon="16.78068"><ele>83.0</ele><time>2026-04-26T07:29:41.977Z</time></trkpt><trkpt lat="41.076545" lon="16.7807833"><ele>83.0</ele><time>2026-04-26T07:29:43.977Z</time></trkpt><trkpt lat="41.0764983" lon="16.7808883"><ele>83.0</ele><time>2026-04-26T07:29:45.977Z</time></trkpt><trkpt lat="41.0764533" lon="16.7809833"><ele>83.0</ele><time>2026-04-26T07:29:47.978Z</time></trkpt><trkpt lat="41.0764133" lon="16.7810933"><ele>83.0</ele><time>2026-04-26T07:29:49.977Z</time></trkpt><trkpt lat="41.0763633" lon="16.7812133"><ele>83.0</ele><time>2026-04-26T07:29:51.977Z</time></trkpt><trkpt lat="41.0763233" lon="16.7813183"><ele>83.0</ele><time>2026-04-26T07:29:53.977Z</time></trkpt><trkpt lat="41.0762933" lon="16.7814317"><ele>83.0</ele><time>2026-04-26T07:29:55.977Z</time></trkpt><trkpt lat="41.07626" lon="16.7815533"><ele>83.0</ele><time>2026-04-26T07:29:57.978Z</time></trkpt><trkpt lat="41.0762183" lon="16.78167"><ele>83.0</ele><time>2026-04-26T07:29:59.978Z</time></trkpt><trkpt lat="41.0761883" lon="16.7817767"><ele>83.0</ele><time>2026-04-26T07:30:01.977Z</time></trkpt><trkpt lat="41.0761617" lon="16.7818733"><ele>83.0</ele><time>2026-04-26T07:30:03.977Z</time></trkpt><trkpt lat="41.0761333" lon="16.7819717"><ele>83.0</ele><time>2026-04-26T07:30:05.977Z</time></trkpt><trkpt lat="41.0760933" lon="16.7820733"><ele>83.0</ele><time>2026-04-26T07:30:07.977Z</time></trkpt><trkpt lat="41.0760583" lon="16.7821617"><ele>83.0</ele><time>2026-04-26T07:30:09.978Z</time></trkpt><trkpt lat="41.0760267" lon="16.78225"><ele>83.0</ele><time>2026-04-26T07:30:11.977Z</time></trkpt><trkpt lat="41.0759867" lon="16.7823533"><ele>83.0</ele><time>2026-04-26T07:30:13.978Z</time></trkpt><trkpt lat="41.0759483" lon="16.7824433"><ele>83.0</ele><time>2026-04-26T07:30:15.978Z</time></trkpt><trkpt lat="41.075915" lon="16.782535"><ele>83.0</ele><time>2026-04-26T07:30:17.977Z</time></trkpt><trkpt lat="41.075875" lon="16.78263"><ele>83.0</ele><time>2026-04-26T07:30:19.978Z</time></trkpt><trkpt lat="41.075855" lon="16.7827467"><ele>83.0</ele><time>2026-04-26T07:30:21.978Z</time></trkpt><trkpt lat="41.075835" lon="16.7828517"><ele>83.0</ele><time>2026-04-26T07:30:23.978Z</time></trkpt><trkpt lat="41.0758" lon="16.7829383"><ele>83.0</ele><time>2026-04-26T07:30:26.978Z</time></trkpt><trkpt lat="41.0757717" lon="16.783015"><ele>83.0</ele><time>2026-04-26T07:30:30.978Z</time></trkpt><trkpt lat="41.0757233" lon="16.7831217"><ele>83.0</ele><time>2026-04-26T07:30:34.977Z</time></trkpt><trkpt lat="41.075695" lon="16.7832033"><ele>83.0</ele><time>2026-04-26T07:30:36.978Z</time></trkpt><trkpt lat="41.075655" lon="16.7832917"><ele>83.0</ele><time>2026-04-26T07:30:38.978Z</time></trkpt><trkpt lat="41.0756133" lon="16.7833883"><ele>83.0</ele><time>2026-04-26T07:30:40.977Z</time></trkpt><trkpt lat="41.0755683" lon="16.783475"><ele>83.0</ele><time>2026-04-26T07:30:42.978Z</time></trkpt><trkpt lat="41.075525" lon="16.783565"><ele>83.0</ele><time>2026-04-26T07:30:44.978Z</time></trkpt><trkpt lat="41.07549" lon="16.7836483"><ele>83.0</ele><time>2026-04-26T07:30:46.977Z</time></trkpt><trkpt lat="41.075455" lon="16.783735"><ele>83.0</ele><time>2026-04-26T07:30:48.977Z</time></trkpt><trkpt lat="41.0754183" lon="16.7838233"><ele>83.0</ele><time>2026-04-26T07:30:50.978Z</time></trkpt><trkpt lat="41.0753717" lon="16.7839233"><ele>83.0</ele><time>2026-04-26T07:30:52.977Z</time></trkpt><trkpt lat="41.0753117" lon="16.7839783"><ele>83.0</ele><time>2026-04-26T07:30:54.978Z</time></trkpt><trkpt lat="41.07524" lon="16.7839567"><ele>83.0</ele><time>2026-04-26T07:30:56.977Z</time></trkpt><trkpt lat="41.0751633" lon="16.7839133"><ele>83.0</ele><time>2026-04-26T07:30:58.978Z</time></trkpt><trkpt lat="41.0750817" lon="16.7838883"><ele>83.0</ele><time>2026-04-26T07:31:00.977Z</time></trkpt><trkpt lat="41.0749967" lon="16.7838583"><ele>83.0</ele><time>2026-04-26T07:31:02.978Z</time></trkpt><trkpt lat="41.07492" lon="16.7838117"><ele>83.0</ele><time>2026-04-26T07:31:04.977Z</time></trkpt><trkpt lat="41.0748317" lon="16.7837583"><ele>83.0</ele><time>2026-04-26T07:31:06.978Z</time></trkpt><trkpt lat="41.07475" lon="16.7836967"><ele>83.0</ele><time>2026-04-26T07:31:08.977Z</time></trkpt><trkpt lat="41.0746667" lon="16.78364"><ele>83.0</ele><time>2026-04-26T07:31:10.978Z</time></trkpt><trkpt lat="41.07458" lon="16.7835833"><ele>83.0</ele><time>2026-04-26T07:31:12.978Z</time></trkpt><trkpt lat="41.07449" lon="16.7835283"><ele>83.0</ele><time>2026-04-26T07:31:14.978Z</time></trkpt><trkpt lat="41.0743983" lon="16.7834717"><ele>83.0</ele><time>2026-04-26T07:31:16.977Z</time></trkpt><trkpt lat="41.0743033" lon="16.7834267"><ele>83.0</ele><time>2026-04-26T07:31:18.978Z</time></trkpt><trkpt lat="41.0742017" lon="16.783415"><ele>83.2</ele><time>2026-04-26T07:31:20.978Z</time></trkpt><trkpt lat="41.0740983" lon="16.7834333"><ele>83.4</ele><time>2026-04-26T07:31:22.977Z</time></trkpt><trkpt lat="41.0740017" lon="16.7834817"><ele>83.60000000000001</ele><time>2026-04-26T07:31:24.977Z</time></trkpt><trkpt lat="41.0739067" lon="16.7835367"><ele>83.80000000000001</ele><time>2026-04-26T07:31:26.978Z</time></trkpt><trkpt lat="41.0738133" lon="16.7836"><ele>84.0</ele><time>2026-04-26T07:31:28.978Z</time></trkpt><trkpt lat="41.073715" lon="16.7836567"><ele>84.0</ele><time>2026-04-26T07:31:30.977Z</time></trkpt><trkpt lat="41.0736167" lon="16.7836917"><ele>84.0</ele><time>2026-04-26T07:31:32.978Z</time></trkpt><trkpt lat="41.0735117" lon="16.78371"><ele>84.0</ele><time>2026-04-26T07:31:34.978Z</time></trkpt><trkpt lat="41.07341" lon="16.783715"><ele>84.0</ele><time>2026-04-26T07:31:36.978Z</time></trkpt><trkpt lat="41.0733083" lon="16.7837217"><ele>84.0</ele><time>2026-04-26T07:31:38.978Z</time></trkpt><trkpt lat="41.0732067" lon="16.7837317"><ele>84.0</ele><time>2026-04-26T07:31:40.978Z</time></trkpt><trkpt lat="41.0731017" lon="16.78374"><ele>84.0</ele><time>2026-04-26T07:31:42.977Z</time></trkpt><trkpt lat="41.0729983" lon="16.7837483"><ele>84.0</ele><time>2026-04-26T07:31:44.977Z</time></trkpt><trkpt lat="41.0728933" lon="16.7837533"><ele>84.0</ele><time>2026-04-26T07:31:46.977Z</time></trkpt><trkpt lat="41.0727917" lon="16.7837567"><ele>84.0</ele><time>2026-04-26T07:31:48.977Z</time></trkpt><trkpt lat="41.07269" lon="16.783765"><ele>84.0</ele><time>2026-04-26T07:31:50.978Z</time></trkpt><trkpt lat="41.0725883" lon="16.7837683"><ele>84.0</ele><time>2026-04-26T07:31:52.977Z</time></trkpt><trkpt lat="41.07249" lon="16.7837483"><ele>84.0</ele><time>2026-04-26T07:31:54.978Z</time></trkpt><trkpt lat="41.072395" lon="16.783705"><ele>84.0</ele><time>2026-04-26T07:31:56.977Z</time></trkpt><trkpt lat="41.0723067" lon="16.78365"><ele>84.0</ele><time>2026-04-26T07:31:58.978Z</time></trkpt><trkpt lat="41.0722117" lon="16.7836183"><ele>84.16666666666667</ele><time>2026-04-26T07:32:00.978Z</time></trkpt><trkpt lat="41.0721217" lon="16.783595"><ele>84.33333333333333</ele><time>2026-04-26T07:32:02.978Z</time></trkpt><trkpt lat="41.0720417" lon="16.7836233"><ele>84.5</ele><time>2026-04-26T07:32:04.978Z</time></trkpt><trkpt lat="41.07199" lon="16.78371"><ele>84.66666666666666</ele><time>2026-04-26T07:32:06.978Z</time></trkpt><trkpt lat="41.0719433" lon="16.7838167"><ele>84.83333333333333</ele><time>2026-04-26T07:32:08.977Z</time></trkpt><trkpt lat="41.071895" lon="16.7839283"><ele>85.0</ele><time>2026-04-26T07:32:10.978Z</time></trkpt><trkpt lat="41.0718633" lon="16.78406"><ele>85.0</ele><time>2026-04-26T07:32:12.977Z</time></trkpt><trkpt lat="41.07186" lon="16.78421"><ele>85.0</ele><time>2026-04-26T07:32:14.977Z</time></trkpt><trkpt lat="41.0718733" lon="16.784365"><ele>85.0</ele><time>2026-04-26T07:32:16.977Z</time></trkpt><trkpt lat="41.0718733" lon="16.7845133"><ele>85.0</ele><time>2026-04-26T07:32:18.978Z</time></trkpt><trkpt lat="41.0718933" lon="16.7846467"><ele>85.0</ele><time>2026-04-26T07:32:20.977Z</time></trkpt><trkpt lat="41.0719133" lon="16.78478"><ele>84.8</ele><time>2026-04-26T07:32:22.977Z</time></trkpt><trkpt lat="41.0719317" lon="16.7849067"><ele>84.6</ele><time>2026-04-26T07:32:24.977Z</time></trkpt><trkpt lat="41.071955" lon="16.7850367"><ele>84.4</ele><time>2026-04-26T07:32:26.978Z</time></trkpt><trkpt lat="41.0719683" lon="16.7851733"><ele>84.2</ele><time>2026-04-26T07:32:28.977Z</time></trkpt><trkpt lat="41.0719883" lon="16.78531"><ele>84.0</ele><time>2026-04-26T07:32:30.977Z</time></trkpt><trkpt lat="41.0720067" lon="16.785445"><ele>83.6</ele><time>2026-04-26T07:32:32.978Z</time></trkpt><trkpt lat="41.0720283" lon="16.7855683"><ele>83.2</ele><time>2026-04-26T07:32:34.978Z</time></trkpt><trkpt lat="41.0720567" lon="16.7856967"><ele>82.8</ele><time>2026-04-26T07:32:36.978Z</time></trkpt><trkpt lat="41.07208" lon="16.7858283"><ele>82.39999999999999</ele><time>2026-04-26T07:32:38.978Z</time></trkpt><trkpt lat="41.0720933" lon="16.78596"><ele>82.0</ele><time>2026-04-26T07:32:40.978Z</time></trkpt><trkpt lat="41.0721217" lon="16.7861017"><ele>81.8</ele><time>2026-04-26T07:32:42.978Z</time></trkpt><trkpt lat="41.0721583" lon="16.7862333"><ele>81.6</ele><time>2026-04-26T07:32:44.977Z</time></trkpt><trkpt lat="41.072215" lon="16.7863517"><ele>81.39999999999999</ele><time>2026-04-26T07:32:46.977Z</time></trkpt><trkpt lat="41.0722883" lon="16.78646"><ele>81.19999999999999</ele><time>2026-04-26T07:32:48.978Z</time></trkpt><trkpt lat="41.0723767" lon="16.7865517"><ele>81.0</ele><time>2026-04-26T07:32:50.977Z</time></trkpt><trkpt lat="41.0724633" lon="16.78665"><ele>81.5</ele><time>2026-04-26T07:32:52.978Z</time></trkpt><trkpt lat="41.0725433" lon="16.786755"><ele>82.0</ele><time>2026-04-26T07:32:54.977Z</time></trkpt><trkpt lat="41.0726217" lon="16.7868633"><ele>82.5</ele><time>2026-04-26T07:32:56.977Z</time></trkpt><trkpt lat="41.0726867" lon="16.7869833"><ele>83.0</ele><time>2026-04-26T07:32:58.977Z</time></trkpt><trkpt lat="41.0727183" lon="16.7871267"><ele>82.0</ele><time>2026-04-26T07:33:00.977Z</time></trkpt><trkpt lat="41.0727017" lon="16.7872783"><ele>81.0</ele><time>2026-04-26T07:33:02.978Z</time></trkpt><trkpt lat="41.0726417" lon="16.787415"><ele>80.0</ele><time>2026-04-26T07:33:04.978Z</time></trkpt><trkpt lat="41.0725417" lon="16.78748"><ele>79.0</ele><time>2026-04-26T07:33:06.978Z</time></trkpt><trkpt lat="41.0724417" lon="16.787465"><ele>78.0</ele><time>2026-04-26T07:33:08.978Z</time></trkpt><trkpt lat="41.0723583" lon="16.787415"><ele>77.6</ele><time>2026-04-26T07:33:10.977Z</time></trkpt><trkpt lat="41.07228" lon="16.7873567"><ele>77.19999999999999</ele><time>2026-04-26T07:33:12.978Z</time></trkpt><trkpt lat="41.0721933" lon="16.7873033"><ele>76.8</ele><time>2026-04-26T07:33:14.977Z</time></trkpt><trkpt lat="41.0720983" lon="16.7872633"><ele>76.39999999999999</ele><time>2026-04-26T07:33:16.978Z</time></trkpt><trkpt lat="41.0719983" lon="16.7872367"><ele>76.0</ele><time>2026-04-26T07:33:18.977Z</time></trkpt><trkpt lat="41.0718867" lon="16.7872333"><ele>76.0</ele><time>2026-04-26T07:33:20.977Z</time></trkpt><trkpt lat="41.0717667" lon="16.7872333"><ele>76.0</ele><time>2026-04-26T07:33:22.978Z</time></trkpt><trkpt lat="41.0717033" lon="16.78723"><ele>76.0</ele><time>2026-04-26T07:33:23.978Z</time></trkpt><trkpt lat="41.07164" lon="16.7872283"><ele>76.0</ele><time>2026-04-26T07:33:24.977Z</time></trkpt><trkpt lat="41.071575" lon="16.78723"><ele>76.0</ele><time>2026-04-26T07:33:25.977Z</time></trkpt><trkpt lat="41.0715083" lon="16.7872267"><ele>76.0</ele><time>2026-04-26T07:33:26.978Z</time></trkpt><trkpt lat="41.0714433" lon="16.7872317"><ele>76.0</ele><time>2026-04-26T07:33:27.978Z</time></trkpt><trkpt lat="41.0713767" lon="16.787245"><ele>76.6</ele><time>2026-04-26T07:33:28.977Z</time></trkpt><trkpt lat="41.0713133" lon="16.7872533"><ele>77.19999999999999</ele><time>2026-04-26T07:33:29.978Z</time></trkpt><trkpt lat="41.0711983" lon="16.787255"><ele>77.80000000000001</ele><time>2026-04-26T07:33:31.977Z</time></trkpt><trkpt lat="41.071085" lon="16.7872533"><ele>78.4</ele><time>2026-04-26T07:33:33.978Z</time></trkpt><trkpt lat="41.07098" lon="16.7872517"><ele>79.0</ele><time>2026-04-26T07:33:35.977Z</time></trkpt><trkpt lat="41.070875" lon="16.7872583"><ele>79.0</ele><time>2026-04-26T07:33:37.977Z</time></trkpt><trkpt lat="41.070775" lon="16.7872767"><ele>79.0</ele><time>2026-04-26T07:33:39.978Z</time></trkpt><trkpt lat="41.07068" lon="16.787315"><ele>79.0</ele><time>2026-04-26T07:33:41.978Z</time></trkpt><trkpt lat="41.07059" lon="16.7873817"><ele>79.0</ele><time>2026-04-26T07:33:43.977Z</time></trkpt><trkpt lat="41.0705117" lon="16.7874583"><ele>79.0</ele><time>2026-04-26T07:33:45.977Z</time></trkpt><trkpt lat="41.0704267" lon="16.7875317"><ele>79.2</ele><time>2026-04-26T07:33:47.977Z</time></trkpt><trkpt lat="41.0703433" lon="16.7876"><ele>79.4</ele><time>2026-04-26T07:33:49.978Z</time></trkpt><trkpt lat="41.070265" lon="16.787675"><ele>79.6</ele><time>2026-04-26T07:33:51.978Z</time></trkpt><trkpt lat="41.0701833" lon="16.7877467"><ele>79.8</ele><time>2026-04-26T07:33:53.978Z</time></trkpt><trkpt lat="41.070105" lon="16.787825"><ele>80.0</ele><time>2026-04-26T07:33:55.978Z</time></trkpt><trkpt lat="41.070015" lon="16.78788"><ele>79.4</ele><time>2026-04-26T07:33:57.978Z</time></trkpt><trkpt lat="41.069915" lon="16.78794"><ele>78.8</ele><time>2026-04-26T07:33:59.977Z</time></trkpt><trkpt lat="41.0698167" lon="16.788"><ele>78.2</ele><time>2026-04-26T07:34:01.978Z</time></trkpt><trkpt lat="41.0697167" lon="16.7880617"><ele>77.6</ele><time>2026-04-26T07:34:03.978Z</time></trkpt><trkpt lat="41.06966" lon="16.7880983"><ele>77.0</ele><time>2026-04-26T07:34:04.977Z</time></trkpt><trkpt lat="41.0696017" lon="16.7881367"><ele>77.0</ele><time>2026-04-26T07:34:05.977Z</time></trkpt><trkpt lat="41.06954" lon="16.7881783"><ele>77.0</ele><time>2026-04-26T07:34:06.977Z</time></trkpt><trkpt lat="41.0694767" lon="16.78822"><ele>77.0</ele><time>2026-04-26T07:34:07.978Z</time></trkpt><trkpt lat="41.0694167" lon="16.7882617"><ele>77.0</ele><time>2026-04-26T07:34:08.978Z</time></trkpt><trkpt lat="41.0693567" lon="16.78832"><ele>77.0</ele><time>2026-04-26T07:34:09.978Z</time></trkpt><trkpt lat="41.0693083" lon="16.7883817"><ele>77.0</ele><time>2026-04-26T07:34:10.978Z</time></trkpt><trkpt lat="41.069265" lon="16.7884633"><ele>77.0</ele><time>2026-04-26T07:34:11.978Z</time></trkpt><trkpt lat="41.069225" lon="16.7885633"><ele>77.33333333333334</ele><time>2026-04-26T07:34:12.978Z</time></trkpt><trkpt lat="41.069195" lon="16.78866"><ele>77.66666666666667</ele><time>2026-04-26T07:34:13.978Z</time></trkpt><trkpt lat="41.0691633" lon="16.7887567"><ele>78.0</ele><time>2026-04-26T07:34:14.977Z</time></trkpt><trkpt lat="41.069125" lon="16.78885"><ele>78.33333333333333</ele><time>2026-04-26T07:34:15.978Z</time></trkpt><trkpt lat="41.0690933" lon="16.7889433"><ele>78.66666666666666</ele><time>2026-04-26T07:34:16.978Z</time></trkpt><trkpt lat="41.0690617" lon="16.7890533"><ele>79.0</ele><time>2026-04-26T07:34:17.978Z</time></trkpt><trkpt lat="41.0690233" lon="16.789155"><ele>78.0</ele><time>2026-04-26T07:34:18.977Z</time></trkpt><trkpt lat="41.0689733" lon="16.789245"><ele>77.0</ele><time>2026-04-26T07:34:19.977Z</time></trkpt><trkpt lat="41.068905" lon="16.7893183"><ele>76.0</ele><time>2026-04-26T07:34:20.978Z</time></trkpt><trkpt lat="41.0688133" lon="16.7893733"><ele>75.0</ele><time>2026-04-26T07:34:21.977Z</time></trkpt><trkpt lat="41.0687067" lon="16.7893833"><ele>74.0</ele><time>2026-04-26T07:34:22.978Z</time></trkpt><trkpt lat="41.0686033" lon="16.78938"><ele>74.0</ele><time>2026-04-26T07:34:23.978Z</time></trkpt><trkpt lat="41.0685017" lon="16.78936"><ele>74.0</ele><time>2026-04-26T07:34:24.978Z</time></trkpt><trkpt lat="41.068405" lon="16.7893417"><ele>74.0</ele><time>2026-04-26T07:34:25.978Z</time></trkpt><trkpt lat="41.068305" lon="16.7893333"><ele>74.0</ele><time>2026-04-26T07:34:26.978Z</time></trkpt><trkpt lat="41.0682133" lon="16.7893283"><ele>74.0</ele><time>2026-04-26T07:34:27.978Z</time></trkpt><trkpt lat="41.06813" lon="16.789315"><ele>74.5</ele><time>2026-04-26T07:34:28.978Z</time></trkpt><trkpt lat="41.0680483" lon="16.7893067"><ele>75.0</ele><time>2026-04-26T07:34:29.977Z</time></trkpt><trkpt lat="41.0679717" lon="16.789295"><ele>75.5</ele><time>2026-04-26T07:34:30.977Z</time></trkpt><trkpt lat="41.0679067" lon="16.7892783"><ele>76.0</ele><time>2026-04-26T07:34:31.978Z</time></trkpt><trkpt lat="41.0678433" lon="16.7892617"><ele>76.5</ele><time>2026-04-26T07:34:32.978Z</time></trkpt><trkpt lat="41.067725" lon="16.7892133"><ele>77.0</ele><time>2026-04-26T07:34:34.978Z</time></trkpt><trkpt lat="41.0676217" lon="16.78915"><ele>77.0</ele><time>2026-04-26T07:34:36.978Z</time></trkpt><trkpt lat="41.0675383" lon="16.789065"><ele>77.0</ele><time>2026-04-26T07:34:38.978Z</time></trkpt><trkpt lat="41.0674717" lon="16.7889683"><ele>77.0</ele><time>2026-04-26T07:34:40.977Z</time></trkpt><trkpt lat="41.0674283" lon="16.788855"><ele>77.0</ele><time>2026-04-26T07:34:42.978Z</time></trkpt><trkpt lat="41.0673933" lon="16.7887283"><ele>77.0</ele><time>2026-04-26T07:34:44.977Z</time></trkpt><trkpt lat="41.0673467" lon="16.7885967"><ele>77.6</ele><time>2026-04-26T07:34:46.978Z</time></trkpt><trkpt lat="41.0672967" lon="16.7884733"><ele>78.2</ele><time>2026-04-26T07:34:48.977Z</time></trkpt><trkpt lat="41.0672433" lon="16.7883683"><ele>78.8</ele><time>2026-04-26T07:34:50.977Z</time></trkpt><trkpt lat="41.0671783" lon="16.788275"><ele>79.4</ele><time>2026-04-26T07:34:52.978Z</time></trkpt><trkpt lat="41.0670967" lon="16.7881967"><ele>80.0</ele><time>2026-04-26T07:34:54.978Z</time></trkpt><trkpt lat="41.0670017" lon="16.7881383"><ele>80.0</ele><time>2026-04-26T07:34:56.978Z</time></trkpt><trkpt lat="41.0669083" lon="16.7880867"><ele>80.0</ele><time>2026-04-26T07:34:58.978Z</time></trkpt><trkpt lat="41.0668083" lon="16.7880567"><ele>80.0</ele><time>2026-04-26T07:35:00.978Z</time></trkpt><trkpt lat="41.066705" lon="16.7880417"><ele>80.0</ele><time>2026-04-26T07:35:02.977Z</time></trkpt><trkpt lat="41.0666067" lon="16.7880367"><ele>80.0</ele><time>2026-04-26T07:35:04.977Z</time></trkpt><trkpt lat="41.066505" lon="16.7880767"><ele>79.8</ele><time>2026-04-26T07:35:06.978Z</time></trkpt><trkpt lat="41.0664" lon="16.7881383"><ele>79.6</ele><time>2026-04-26T07:35:08.978Z</time></trkpt><trkpt lat="41.06631" lon="16.7882117"><ele>79.4</ele><time>2026-04-26T07:35:10.977Z</time></trkpt><trkpt lat="41.0662383" lon="16.7883017"><ele>79.2</ele><time>2026-04-26T07:35:12.977Z</time></trkpt><trkpt lat="41.06617" lon="16.7883933"><ele>79.0</ele><time>2026-04-26T07:35:14.977Z</time></trkpt><trkpt lat="41.066105" lon="16.7884983"><ele>79.6</ele><time>2026-04-26T07:35:16.978Z</time></trkpt><trkpt lat="41.0660467" lon="16.7885933"><ele>80.2</ele><time>2026-04-26T07:35:18.977Z</time></trkpt><trkpt lat="41.06598" lon="16.7886917"><ele>80.8</ele><time>2026-04-26T07:35:20.978Z</time></trkpt><trkpt lat="41.0659217" lon="16.7887717"><ele>81.39999999999999</ele><time>2026-04-26T07:35:22.977Z</time></trkpt><trkpt lat="41.0658583" lon="16.788855"><ele>82.0</ele><time>2026-04-26T07:35:24.977Z</time></trkpt><trkpt lat="41.0657867" lon="16.788945"><ele>82.19999999999999</ele><time>2026-04-26T07:35:26.977Z</time></trkpt><trkpt lat="41.0657183" lon="16.78903"><ele>82.4</ele><time>2026-04-26T07:35:28.978Z</time></trkpt><trkpt lat="41.0656417" lon="16.789115"><ele>82.6</ele><time>2026-04-26T07:35:30.978Z</time></trkpt><trkpt lat="41.065565" lon="16.7891917"><ele>82.80000000000001</ele><time>2026-04-26T07:35:32.977Z</time></trkpt><trkpt lat="41.065495" lon="16.7892817"><ele>83.0</ele><time>2026-04-26T07:35:34.977Z</time></trkpt><trkpt lat="41.06542" lon="16.7893667"><ele>83.4</ele><time>2026-04-26T07:35:36.978Z</time></trkpt><trkpt lat="41.065345" lon="16.789455"><ele>83.80000000000001</ele><time>2026-04-26T07:35:38.977Z</time></trkpt><trkpt lat="41.0652733" lon="16.78954"><ele>84.2</ele><time>2026-04-26T07:35:40.978Z</time></trkpt><trkpt lat="41.0652117" lon="16.7896267"><ele>84.6</ele><time>2026-04-26T07:35:42.977Z</time></trkpt><trkpt lat="41.0651367" lon="16.78971"><ele>85.0</ele><time>2026-04-26T07:35:44.978Z</time></trkpt><trkpt lat="41.0650667" lon="16.7898"><ele>85.0</ele><time>2026-04-26T07:35:46.978Z</time></trkpt><trkpt lat="41.0649967" lon="16.7898883"><ele>85.0</ele><time>2026-04-26T07:35:48.978Z</time></trkpt><trkpt lat="41.0649267" lon="16.789975"><ele>85.0</ele><time>2026-04-26T07:35:50.978Z</time></trkpt><trkpt lat="41.0648567" lon="16.79006"><ele>85.0</ele><time>2026-04-26T07:35:52.978Z</time></trkpt><trkpt lat="41.0647817" lon="16.7901383"><ele>85.0</ele><time>2026-04-26T07:35:54.978Z</time></trkpt><trkpt lat="41.064715" lon="16.7902217"><ele>85.33333333333333</ele><time>2026-04-26T07:35:56.978Z</time></trkpt><trkpt lat="41.064645" lon="16.7903067"><ele>85.66666666666666</ele><time>2026-04-26T07:35:58.978Z</time></trkpt><trkpt lat="41.064585" lon="16.7903767"><ele>86.0</ele><time>2026-04-26T07:36:00.977Z</time></trkpt><trkpt lat="41.06452" lon="16.7904567"><ele>86.33333333333333</ele><time>2026-04-26T07:36:02.977Z</time></trkpt><trkpt lat="41.0644417" lon="16.7905283"><ele>86.66666666666667</ele><time>2026-04-26T07:36:04.978Z</time></trkpt><trkpt lat="41.064365" lon="16.790575"><ele>87.0</ele><time>2026-04-26T07:36:06.978Z</time></trkpt><trkpt lat="41.0642767" lon="16.7906133"><ele>87.0</ele><time>2026-04-26T07:36:08.978Z</time></trkpt><trkpt lat="41.06418" lon="16.7906333"><ele>87.0</ele><time>2026-04-26T07:36:10.978Z</time></trkpt><trkpt lat="41.0640833" lon="16.790645"><ele>87.0</ele><time>2026-04-26T07:36:12.977Z</time></trkpt><trkpt lat="41.0639883" lon="16.79064"><ele>87.0</ele><time>2026-04-26T07:36:14.978Z</time></trkpt><trkpt lat="41.0638983" lon="16.7906233"><ele>87.0</ele><time>2026-04-26T07:36:16.977Z</time></trkpt><trkpt lat="41.0638067" lon="16.7906067"><ele>86.8</ele><time>2026-04-26T07:36:18.977Z</time></trkpt><trkpt lat="41.0637117" lon="16.790585"><ele>86.6</ele><time>2026-04-26T07:36:20.977Z</time></trkpt><trkpt lat="41.063615" lon="16.7905667"><ele>86.39999999999999</ele><time>2026-04-26T07:36:22.978Z</time></trkpt><trkpt lat="41.06352" lon="16.7905383"><ele>86.19999999999999</ele><time>2026-04-26T07:36:24.977Z</time></trkpt><trkpt lat="41.06342" lon="16.790515"><ele>86.0</ele><time>2026-04-26T07:36:26.977Z</time></trkpt><trkpt lat="41.06333" lon="16.7904933"><ele>86.19999999999999</ele><time>2026-04-26T07:36:28.978Z</time></trkpt><trkpt lat="41.0632367" lon="16.790475"><ele>86.39999999999999</ele><time>2026-04-26T07:36:30.977Z</time></trkpt><trkpt lat="41.0631533" lon="16.79044"><ele>86.6</ele><time>2026-04-26T07:36:32.977Z</time></trkpt><trkpt lat="41.0630533" lon="16.7904233"><ele>86.8</ele><time>2026-04-26T07:36:34.977Z</time></trkpt><trkpt lat="41.0629617" lon="16.7903933"><ele>87.0</ele><time>2026-04-26T07:36:36.978Z</time></trkpt><trkpt lat="41.0628733" lon="16.7903617"><ele>87.0</ele><time>2026-04-26T07:36:38.977Z</time></trkpt><trkpt lat="41.0627867" lon="16.7903483"><ele>87.0</ele><time>2026-04-26T07:36:40.978Z</time></trkpt><trkpt lat="41.0626933" lon="16.7903267"><ele>87.0</ele><time>2026-04-26T07:36:42.978Z</time></trkpt><trkpt lat="41.0626017" lon="16.7903033"><ele>87.0</ele><time>2026-04-26T07:36:44.978Z</time></trkpt><trkpt lat="41.062515" lon="16.79027"><ele>87.0</ele><time>2026-04-26T07:36:46.977Z</time></trkpt><trkpt lat="41.0624283" lon="16.7902417"><ele>87.39999999999999</ele><time>2026-04-26T07:36:48.977Z</time></trkpt><trkpt lat="41.0623367" lon="16.7902183"><ele>87.8</ele><time>2026-04-26T07:36:50.978Z</time></trkpt><trkpt lat="41.062245" lon="16.7901933"><ele>88.2</ele><time>2026-04-26T07:36:52.977Z</time></trkpt><trkpt lat="41.062155" lon="16.790165"><ele>88.6</ele><time>2026-04-26T07:36:54.978Z</time></trkpt><trkpt lat="41.06207" lon="16.790125"><ele>89.0</ele><time>2026-04-26T07:36:56.978Z</time></trkpt><trkpt lat="41.061985" lon="16.79009"><ele>89.0</ele><time>2026-04-26T07:36:58.977Z</time></trkpt><trkpt lat="41.0619217" lon="16.7900483"><ele>89.0</ele><time>2026-04-26T07:37:00.977Z</time></trkpt><trkpt lat="41.061845" lon="16.7899867"><ele>89.0</ele><time>2026-04-26T07:37:03.978Z</time></trkpt><trkpt lat="41.0617817" lon="16.78994"><ele>89.0</ele><time>2026-04-26T07:37:05.977Z</time></trkpt><trkpt lat="41.061705" lon="16.7899217"><ele>89.0</ele><time>2026-04-26T07:37:07.978Z</time></trkpt><trkpt lat="41.0616183" lon="16.7899267"><ele>89.0</ele><time>2026-04-26T07:37:09.977Z</time></trkpt><trkpt lat="41.0615283" lon="16.7899483"><ele>89.2</ele><time>2026-04-26T07:37:11.978Z</time></trkpt><trkpt lat="41.061435" lon="16.78995"><ele>89.4</ele><time>2026-04-26T07:37:13.978Z</time></trkpt><trkpt lat="41.0613417" lon="16.7899367"><ele>89.6</ele><time>2026-04-26T07:37:15.978Z</time></trkpt><trkpt lat="41.0612517" lon="16.7899267"><ele>89.8</ele><time>2026-04-26T07:37:17.977Z</time></trkpt><trkpt lat="41.0611567" lon="16.7899117"><ele>90.0</ele><time>2026-04-26T07:37:19.977Z</time></trkpt><trkpt lat="41.0610633" lon="16.7899"><ele>90.0</ele><time>2026-04-26T07:37:21.978Z</time></trkpt><trkpt lat="41.0609667" lon="16.7898917"><ele>90.0</ele><time>2026-04-26T07:37:23.977Z</time></trkpt><trkpt lat="41.0608717" lon="16.7898867"><ele>90.0</ele><time>2026-04-26T07:37:25.978Z</time></trkpt><trkpt lat="41.060775" lon="16.7898617"><ele>90.0</ele><time>2026-04-26T07:37:27.977Z</time></trkpt><trkpt lat="41.0606667" lon="16.7898467"><ele>90.0</ele><time>2026-04-26T07:37:29.977Z</time></trkpt><trkpt lat="41.060565" lon="16.789835"><ele>90.0</ele><time>2026-04-26T07:37:31.978Z</time></trkpt><trkpt lat="41.06046" lon="16.789845"><ele>90.0</ele><time>2026-04-26T07:37:33.978Z</time></trkpt><trkpt lat="41.06035" lon="16.7898417"><ele>90.0</ele><time>2026-04-26T07:37:35.978Z</time></trkpt><trkpt lat="41.0602383" lon="16.7898533"><ele>90.0</ele><time>2026-04-26T07:37:37.978Z</time></trkpt><trkpt lat="41.0601333" lon="16.7898517"><ele>90.0</ele><time>2026-04-26T07:37:39.978Z</time></trkpt><trkpt lat="41.0600333" lon="16.789855"><ele>90.2</ele><time>2026-04-26T07:37:41.978Z</time></trkpt><trkpt lat="41.0599183" lon="16.7898683"><ele>90.4</ele><time>2026-04-26T07:37:43.978Z</time></trkpt><trkpt lat="41.059815" lon="16.7898817"><ele>90.6</ele><time>2026-04-26T07:37:45.977Z</time></trkpt><trkpt lat="41.059705" lon="16.7899117"><ele>90.8</ele><time>2026-04-26T07:37:47.977Z</time></trkpt><trkpt lat="41.0595967" lon="16.7899317"><ele>91.0</ele><time>2026-04-26T07:37:49.977Z</time></trkpt><trkpt lat="41.0594833" lon="16.7899517"><ele>91.0</ele><time>2026-04-26T07:37:51.977Z</time></trkpt><trkpt lat="41.0593767" lon="16.7899783"><ele>91.0</ele><time>2026-04-26T07:37:53.978Z</time></trkpt><trkpt lat="41.0592733" lon="16.790015"><ele>91.0</ele><time>2026-04-26T07:37:55.978Z</time></trkpt><trkpt lat="41.05917" lon="16.7900567"><ele>91.0</ele><time>2026-04-26T07:37:57.978Z</time></trkpt><trkpt lat="41.0590717" lon="16.7900933"><ele>91.0</ele><time>2026-04-26T07:37:59.978Z</time></trkpt><trkpt lat="41.0589667" lon="16.7901367"><ele>91.0</ele><time>2026-04-26T07:38:01.978Z</time></trkpt><trkpt lat="41.058865" lon="16.7901817"><ele>91.0</ele><time>2026-04-26T07:38:03.978Z</time></trkpt><trkpt lat="41.0587733" lon="16.790225"><ele>91.0</ele><time>2026-04-26T07:38:05.977Z</time></trkpt><trkpt lat="41.05869" lon="16.7902633"><ele>91.0</ele><time>2026-04-26T07:38:07.978Z</time></trkpt><trkpt lat="41.05861" lon="16.7903083"><ele>91.0</ele><time>2026-04-26T07:38:09.977Z</time></trkpt><trkpt lat="41.0585267" lon="16.7903567"><ele>91.0</ele><time>2026-04-26T07:38:11.978Z</time></trkpt><trkpt lat="41.05844" lon="16.790405"><ele>91.0</ele><time>2026-04-26T07:38:13.978Z</time></trkpt><trkpt lat="41.058355" lon="16.790455"><ele>91.0</ele><time>2026-04-26T07:38:15.978Z</time></trkpt><trkpt lat="41.0582717" lon="16.7905017"><ele>91.0</ele><time>2026-04-26T07:38:17.978Z</time></trkpt><trkpt lat="41.058175" lon="16.7905533"><ele>91.0</ele><time>2026-04-26T07:38:19.977Z</time></trkpt><trkpt lat="41.0580817" lon="16.790605"><ele>91.19999999999999</ele><time>2026-04-26T07:38:21.978Z</time></trkpt><trkpt lat="41.0579833" lon="16.7906567"><ele>91.39999999999999</ele><time>2026-04-26T07:38:23.978Z</time></trkpt><trkpt lat="41.057895" lon="16.7906967"><ele>91.6</ele><time>2026-04-26T07:38:25.978Z</time></trkpt><trkpt lat="41.057805" lon="16.790745"><ele>91.8</ele><time>2026-04-26T07:38:27.977Z</time></trkpt><trkpt lat="41.0577167" lon="16.7907967"><ele>92.0</ele><time>2026-04-26T07:38:29.977Z</time></trkpt><trkpt lat="41.0576217" lon="16.7908433"><ele>92.0</ele><time>2026-04-26T07:38:31.977Z</time></trkpt><trkpt lat="41.0575283" lon="16.790895"><ele>92.0</ele><time>2026-04-26T07:38:33.978Z</time></trkpt><trkpt lat="41.057435" lon="16.7909433"><ele>92.0</ele><time>2026-04-26T07:38:35.978Z</time></trkpt><trkpt lat="41.0573383" lon="16.7910067"><ele>92.0</ele><time>2026-04-26T07:38:37.977Z</time></trkpt><trkpt lat="41.0572483" lon="16.7910617"><ele>92.0</ele><time>2026-04-26T07:38:39.978Z</time></trkpt><trkpt lat="41.0571517" lon="16.7911167"><ele>92.0</ele><time>2026-04-26T07:38:41.977Z</time></trkpt><trkpt lat="41.0570533" lon="16.79118"><ele>92.0</ele><time>2026-04-26T07:38:43.977Z</time></trkpt><trkpt lat="41.0569567" lon="16.7912383"><ele>92.0</ele><time>2026-04-26T07:38:45.977Z</time></trkpt><trkpt lat="41.0568533" lon="16.7912917"><ele>92.0</ele><time>2026-04-26T07:38:47.976Z</time></trkpt><trkpt lat="41.056755" lon="16.7913533"><ele>92.0</ele><time>2026-04-26T07:38:49.977Z</time></trkpt><trkpt lat="41.056665" lon="16.7914183"><ele>92.39999999999999</ele><time>2026-04-26T07:38:51.977Z</time></trkpt><trkpt lat="41.0565717" lon="16.7914917"><ele>92.8</ele><time>2026-04-26T07:38:53.977Z</time></trkpt><trkpt lat="41.056485" lon="16.791565"><ele>93.2</ele><time>2026-04-26T07:38:55.976Z</time></trkpt><trkpt lat="41.0563967" lon="16.791645"><ele>93.6</ele><time>2026-04-26T07:38:57.976Z</time></trkpt><trkpt lat="41.0563167" lon="16.79173"><ele>94.0</ele><time>2026-04-26T07:38:59.976Z</time></trkpt><trkpt lat="41.0562367" lon="16.791835"><ele>93.80000000000001</ele><time>2026-04-26T07:39:01.976Z</time></trkpt><trkpt lat="41.05616" lon="16.7919333"><ele>93.60000000000001</ele><time>2026-04-26T07:39:03.977Z</time></trkpt><trkpt lat="41.0561" lon="16.7920367"><ele>93.4</ele><time>2026-04-26T07:39:05.976Z</time></trkpt><trkpt lat="41.0560283" lon="16.7921533"><ele>93.2</ele><time>2026-04-26T07:39:07.977Z</time></trkpt><trkpt lat="41.05595" lon="16.79226"><ele>93.0</ele><time>2026-04-26T07:39:09.977Z</time></trkpt><trkpt lat="41.0558733" lon="16.7923683"><ele>93.0</ele><time>2026-04-26T07:39:11.977Z</time></trkpt><trkpt lat="41.0557967" lon="16.79248"><ele>93.0</ele><time>2026-04-26T07:39:13.976Z</time></trkpt><trkpt lat="41.0557167" lon="16.792595"><ele>93.0</ele><time>2026-04-26T07:39:15.976Z</time></trkpt><trkpt lat="41.0556367" lon="16.7927"><ele>93.0</ele><time>2026-04-26T07:39:17.977Z</time></trkpt><trkpt lat="41.0555633" lon="16.7928167"><ele>92.0</ele><time>2026-04-26T07:39:19.977Z</time></trkpt><trkpt lat="41.0554817" lon="16.7929267"><ele>91.0</ele><time>2026-04-26T07:39:21.976Z</time></trkpt><trkpt lat="41.0554017" lon="16.79304"><ele>90.0</ele><time>2026-04-26T07:39:23.977Z</time></trkpt><trkpt lat="41.055325" lon="16.7931567"><ele>89.0</ele><time>2026-04-26T07:39:25.976Z</time></trkpt><trkpt lat="41.055245" lon="16.7932633"><ele>89.0</ele><time>2026-04-26T07:39:27.976Z</time></trkpt><trkpt lat="41.055155" lon="16.7933383"><ele>89.0</ele><time>2026-04-26T07:39:29.976Z</time></trkpt><trkpt lat="41.0550533" lon="16.79342"><ele>89.0</ele><time>2026-04-26T07:39:31.977Z</time></trkpt><trkpt lat="41.054945" lon="16.7935"><ele>89.0</ele><time>2026-04-26T07:39:33.977Z</time></trkpt><trkpt lat="41.0548367" lon="16.7935633"><ele>89.75</ele><time>2026-04-26T07:39:35.977Z</time></trkpt><trkpt lat="41.0547283" lon="16.793625"><ele>90.5</ele><time>2026-04-26T07:39:37.976Z</time></trkpt><trkpt lat="41.0546167" lon="16.793695"><ele>91.25</ele><time>2026-04-26T07:39:39.976Z</time></trkpt><trkpt lat="41.05451" lon="16.793755"><ele>92.0</ele><time>2026-04-26T07:39:41.976Z</time></trkpt><trkpt lat="41.0544033" lon="16.7938067"><ele>92.0</ele><time>2026-04-26T07:39:43.976Z</time></trkpt><trkpt lat="41.054295" lon="16.7938517"><ele>92.0</ele><time>2026-04-26T07:39:45.976Z</time></trkpt><trkpt lat="41.054185" lon="16.79389"><ele>92.0</ele><time>2026-04-26T07:39:47.977Z</time></trkpt><trkpt lat="41.0540767" lon="16.7939067"><ele>92.0</ele><time>2026-04-26T07:39:49.976Z</time></trkpt><trkpt lat="41.05397" lon="16.7939283"><ele>92.0</ele><time>2026-04-26T07:39:51.976Z</time></trkpt><trkpt lat="41.053855" lon="16.7939517"><ele>92.5</ele><time>2026-04-26T07:39:53.977Z</time></trkpt><trkpt lat="41.0537483" lon="16.7939717"><ele>93.0</ele><time>2026-04-26T07:39:55.977Z</time></trkpt><trkpt lat="41.05366" lon="16.793995"><ele>93.5</ele><time>2026-04-26T07:39:57.976Z</time></trkpt><trkpt lat="41.0535833" lon="16.794015"><ele>94.0</ele><time>2026-04-26T07:39:59.977Z</time></trkpt><trkpt lat="41.0535017" lon="16.794025"><ele>94.5</ele><time>2026-04-26T07:40:01.977Z</time></trkpt><trkpt lat="41.053415" lon="16.79404"><ele>95.0</ele><time>2026-04-26T07:40:03.976Z</time></trkpt><trkpt lat="41.05333" lon="16.7940583"><ele>95.0</ele><time>2026-04-26T07:40:05.976Z</time></trkpt><trkpt lat="41.0532383" lon="16.7940883"><ele>95.0</ele><time>2026-04-26T07:40:07.976Z</time></trkpt><trkpt lat="41.0531483" lon="16.7941083"><ele>95.0</ele><time>2026-04-26T07:40:09.977Z</time></trkpt><trkpt lat="41.0530567" lon="16.794125"><ele>95.0</ele><time>2026-04-26T07:40:11.976Z</time></trkpt><trkpt lat="41.05296" lon="16.7941417"><ele>95.0</ele><time>2026-04-26T07:40:13.976Z</time></trkpt><trkpt lat="41.0528733" lon="16.7941567"><ele>95.0</ele><time>2026-04-26T07:40:15.977Z</time></trkpt><trkpt lat="41.0527867" lon="16.794175"><ele>95.0</ele><time>2026-04-26T07:40:17.977Z</time></trkpt><trkpt lat="41.052705" lon="16.7941917"><ele>95.0</ele><time>2026-04-26T07:40:19.977Z</time></trkpt><trkpt lat="41.0526233" lon="16.7942133"><ele>95.0</ele><time>2026-04-26T07:40:21.976Z</time></trkpt><trkpt lat="41.052545" lon="16.7942333"><ele>95.0</ele><time>2026-04-26T07:40:23.977Z</time></trkpt><trkpt lat="41.0524633" lon="16.7942517"><ele>95.0</ele><time>2026-04-26T07:40:25.977Z</time></trkpt><trkpt lat="41.0523783" lon="16.7942717"><ele>95.2</ele><time>2026-04-26T07:40:27.977Z</time></trkpt><trkpt lat="41.0522933" lon="16.7942933"><ele>95.4</ele><time>2026-04-26T07:40:29.976Z</time></trkpt><trkpt lat="41.0522017" lon="16.794305"><ele>95.6</ele><time>2026-04-26T07:40:31.977Z</time></trkpt><trkpt lat="41.052115" lon="16.794335"><ele>95.8</ele><time>2026-04-26T07:40:33.977Z</time></trkpt><trkpt lat="41.052025" lon="16.7943533"><ele>96.0</ele><time>2026-04-26T07:40:35.977Z</time></trkpt><trkpt lat="41.051935" lon="16.7943767"><ele>96.0</ele><time>2026-04-26T07:40:37.976Z</time></trkpt><trkpt lat="41.0518433" lon="16.7943967"><ele>96.0</ele><time>2026-04-26T07:40:39.977Z</time></trkpt><trkpt lat="41.0517533" lon="16.794415"><ele>96.0</ele><time>2026-04-26T07:40:41.977Z</time></trkpt><trkpt lat="41.0516683" lon="16.7944367"><ele>96.0</ele><time>2026-04-26T07:40:43.977Z</time></trkpt><trkpt lat="41.051585" lon="16.7944617"><ele>96.0</ele><time>2026-04-26T07:40:45.976Z</time></trkpt><trkpt lat="41.0514933" lon="16.7944883"><ele>96.0</ele><time>2026-04-26T07:40:47.977Z</time></trkpt><trkpt lat="41.0514033" lon="16.7945067"><ele>96.0</ele><time>2026-04-26T07:40:49.977Z</time></trkpt><trkpt lat="41.051315" lon="16.7945217"><ele>96.0</ele><time>2026-04-26T07:40:51.977Z</time></trkpt><trkpt lat="41.0512333" lon="16.794535"><ele>96.0</ele><time>2026-04-26T07:40:53.976Z</time></trkpt><trkpt lat="41.0511467" lon="16.79455"><ele>96.0</ele><time>2026-04-26T07:40:55.976Z</time></trkpt><trkpt lat="41.05106" lon="16.794565"><ele>96.0</ele><time>2026-04-26T07:40:57.977Z</time></trkpt><trkpt lat="41.0509717" lon="16.7945667"><ele>96.0</ele><time>2026-04-26T07:40:59.977Z</time></trkpt><trkpt lat="41.0508783" lon="16.7945783"><ele>96.0</ele><time>2026-04-26T07:41:01.977Z</time></trkpt><trkpt lat="41.05079" lon="16.7945917"><ele>96.0</ele><time>2026-04-26T07:41:03.977Z</time></trkpt><trkpt lat="41.0507" lon="16.7946067"><ele>96.0</ele><time>2026-04-26T07:41:05.976Z</time></trkpt><trkpt lat="41.0506083" lon="16.7946167"><ele>96.0</ele><time>2026-04-26T07:41:07.976Z</time></trkpt><trkpt lat="41.0505117" lon="16.7946283"><ele>96.0</ele><time>2026-04-26T07:41:09.977Z</time></trkpt><trkpt lat="41.050415" lon="16.7946367"><ele>96.0</ele><time>2026-04-26T07:41:11.976Z</time></trkpt><trkpt lat="41.05032" lon="16.794655"><ele>96.0</ele><time>2026-04-26T07:41:13.977Z</time></trkpt><trkpt lat="41.0502317" lon="16.7946717"><ele>96.0</ele><time>2026-04-26T07:41:15.976Z</time></trkpt><trkpt lat="41.0501367" lon="16.7946867"><ele>96.0</ele><time>2026-04-26T07:41:17.976Z</time></trkpt><trkpt lat="41.0500433" lon="16.7946867"><ele>96.19999999999999</ele><time>2026-04-26T07:41:19.976Z</time></trkpt><trkpt lat="41.0499467" lon="16.794685"><ele>96.39999999999999</ele><time>2026-04-26T07:41:21.977Z</time></trkpt><trkpt lat="41.0498533" lon="16.7946833"><ele>96.6</ele><time>2026-04-26T07:41:23.977Z</time></trkpt><trkpt lat="41.04976" lon="16.7946917"><ele>96.8</ele><time>2026-04-26T07:41:25.976Z</time></trkpt><trkpt lat="41.0496667" lon="16.794695"><ele>97.0</ele><time>2026-04-26T07:41:27.976Z</time></trkpt><trkpt lat="41.0495717" lon="16.7946867"><ele>97.0</ele><time>2026-04-26T07:41:29.977Z</time></trkpt><trkpt lat="41.0494783" lon="16.7946867"><ele>97.0</ele><time>2026-04-26T07:41:31.976Z</time></trkpt><trkpt lat="41.0493883" lon="16.7946783"><ele>97.0</ele><time>2026-04-26T07:41:33.977Z</time></trkpt><trkpt lat="41.0492883" lon="16.7946733"><ele>97.0</ele><time>2026-04-26T07:41:35.976Z</time></trkpt><trkpt lat="41.0491933" lon="16.79465"><ele>97.0</ele><time>2026-04-26T07:41:37.977Z</time></trkpt><trkpt lat="41.0490933" lon="16.79464"><ele>97.6</ele><time>2026-04-26T07:41:39.976Z</time></trkpt><trkpt lat="41.0489917" lon="16.7946083"><ele>98.19999999999999</ele><time>2026-04-26T07:41:41.977Z</time></trkpt><trkpt lat="41.0489" lon="16.79459"><ele>98.8</ele><time>2026-04-26T07:41:43.976Z</time></trkpt><trkpt lat="41.0488017" lon="16.7945717"><ele>99.4</ele><time>2026-04-26T07:41:45.976Z</time></trkpt><trkpt lat="41.0487083" lon="16.79455"><ele>100.0</ele><time>2026-04-26T07:41:47.976Z</time></trkpt><trkpt lat="41.048615" lon="16.79453"><ele>100.0</ele><time>2026-04-26T07:41:49.977Z</time></trkpt><trkpt lat="41.0485217" lon="16.7945067"><ele>100.0</ele><time>2026-04-26T07:41:51.976Z</time></trkpt><trkpt lat="41.04843" lon="16.7944883"><ele>100.0</ele><time>2026-04-26T07:41:53.976Z</time></trkpt><trkpt lat="41.0483433" lon="16.7944633"><ele>100.0</ele><time>2026-04-26T07:41:55.976Z</time></trkpt><trkpt lat="41.04825" lon="16.7944333"><ele>100.0</ele><time>2026-04-26T07:41:57.977Z</time></trkpt><trkpt lat="41.0481633" lon="16.7944183"><ele>100.2</ele><time>2026-04-26T07:41:59.977Z</time></trkpt><trkpt lat="41.04807" lon="16.7944133"><ele>100.4</ele><time>2026-04-26T07:42:01.977Z</time></trkpt><trkpt lat="41.0479817" lon="16.7944083"><ele>100.6</ele><time>2026-04-26T07:42:03.976Z</time></trkpt><trkpt lat="41.0478933" lon="16.7943967"><ele>100.8</ele><time>2026-04-26T07:42:05.977Z</time></trkpt><trkpt lat="41.0478033" lon="16.7943933"><ele>101.0</ele><time>2026-04-26T07:42:07.977Z</time></trkpt><trkpt lat="41.0477133" lon="16.7943933"><ele>101.0</ele><time>2026-04-26T07:42:09.976Z</time></trkpt><trkpt lat="41.0476233" lon="16.7944"><ele>101.0</ele><time>2026-04-26T07:42:11.977Z</time></trkpt><trkpt lat="41.0475283" lon="16.7944067"><ele>101.0</ele><time>2026-04-26T07:42:13.976Z</time></trkpt><trkpt lat="41.0474333" lon="16.79442"><ele>101.0</ele><time>2026-04-26T07:42:15.977Z</time></trkpt><trkpt lat="41.0473383" lon="16.7944333"><ele>101.0</ele><time>2026-04-26T07:42:17.976Z</time></trkpt><trkpt lat="41.0472483" lon="16.7944417"><ele>101.0</ele><time>2026-04-26T07:42:19.976Z</time></trkpt><trkpt lat="41.0471583" lon="16.79446"><ele>101.0</ele><time>2026-04-26T07:42:21.976Z</time></trkpt><trkpt lat="41.04707" lon="16.7944717"><ele>101.0</ele><time>2026-04-26T07:42:23.977Z</time></trkpt><trkpt lat="41.04698" lon="16.7944717"><ele>101.0</ele><time>2026-04-26T07:42:25.976Z</time></trkpt><trkpt lat="41.0468867" lon="16.7944767"><ele>101.0</ele><time>2026-04-26T07:42:27.976Z</time></trkpt><trkpt lat="41.0467917" lon="16.79449"><ele>101.0</ele><time>2026-04-26T07:42:29.976Z</time></trkpt><trkpt lat="41.0467033" lon="16.7944883"><ele>101.0</ele><time>2026-04-26T07:42:31.977Z</time></trkpt><trkpt lat="41.0466117" lon="16.7944917"><ele>101.0</ele><time>2026-04-26T07:42:33.976Z</time></trkpt><trkpt lat="41.0465217" lon="16.794485"><ele>101.0</ele><time>2026-04-26T07:42:35.976Z</time></trkpt><trkpt lat="41.04643" lon="16.794485"><ele>101.0</ele><time>2026-04-26T07:42:37.977Z</time></trkpt><trkpt lat="41.04634" lon="16.7944617"><ele>101.4</ele><time>2026-04-26T07:42:39.977Z</time></trkpt><trkpt lat="41.0462517" lon="16.794445"><ele>101.8</ele><time>2026-04-26T07:42:41.977Z</time></trkpt><trkpt lat="41.0461617" lon="16.794425"><ele>102.2</ele><time>2026-04-26T07:42:43.976Z</time></trkpt><trkpt lat="41.0460767" lon="16.7943983"><ele>102.60000000000001</ele><time>2026-04-26T07:42:45.976Z</time></trkpt><trkpt lat="41.0459867" lon="16.7943617"><ele>103.0</ele><time>2026-04-26T07:42:47.977Z</time></trkpt><trkpt lat="41.0459" lon="16.7943233"><ele>103.00000000000001</ele><time>2026-04-26T07:42:49.976Z</time></trkpt><trkpt lat="41.0458183" lon="16.79427"><ele>103.0</ele><time>2026-04-26T07:42:51.977Z</time></trkpt><trkpt lat="41.0457333" lon="16.7942183"><ele>103.0</ele><time>2026-04-26T07:42:53.976Z</time></trkpt><trkpt lat="41.04566" lon="16.7941733"><ele>103.0</ele><time>2026-04-26T07:42:55.977Z</time></trkpt><trkpt lat="41.0455767" lon="16.7941283"><ele>103.00000000000001</ele><time>2026-04-26T07:42:57.976Z</time></trkpt><trkpt lat="41.045495" lon="16.794095"><ele>103.0</ele><time>2026-04-26T07:42:59.977Z</time></trkpt><trkpt lat="41.045415" lon="16.7940567"><ele>103.33333333333334</ele><time>2026-04-26T07:43:01.977Z</time></trkpt><trkpt lat="41.0453317" lon="16.794015"><ele>103.66666666666667</ele><time>2026-04-26T07:43:03.977Z</time></trkpt><trkpt lat="41.0452533" lon="16.7939717"><ele>104.0</ele><time>2026-04-26T07:43:05.976Z</time></trkpt><trkpt lat="41.0451717" lon="16.79392"><ele>104.33333333333334</ele><time>2026-04-26T07:43:07.977Z</time></trkpt><trkpt lat="41.0450883" lon="16.7938717"><ele>104.66666666666667</ele><time>2026-04-26T07:43:09.977Z</time></trkpt><trkpt lat="41.0450083" lon="16.79384"><ele>105.0</ele><time>2026-04-26T07:43:11.976Z</time></trkpt><trkpt lat="41.0449317" lon="16.7938117"><ele>105.0</ele><time>2026-04-26T07:43:13.977Z</time></trkpt><trkpt lat="41.0448567" lon="16.7938017"><ele>105.0</ele><time>2026-04-26T07:43:15.976Z</time></trkpt><trkpt lat="41.0447833" lon="16.7937917"><ele>105.0</ele><time>2026-04-26T07:43:17.976Z</time></trkpt><trkpt lat="41.044715" lon="16.79378"><ele>105.0</ele><time>2026-04-26T07:43:19.977Z</time></trkpt><trkpt lat="41.0446517" lon="16.7937683"><ele>105.0</ele><time>2026-04-26T07:43:21.976Z</time></trkpt><trkpt lat="41.0445867" lon="16.7937717"><ele>105.0</ele><time>2026-04-26T07:43:23.977Z</time></trkpt><trkpt lat="41.0445117" lon="16.793775"><ele>105.0</ele><time>2026-04-26T07:43:25.976Z</time></trkpt><trkpt lat="41.0444467" lon="16.7937683"><ele>105.0</ele><time>2026-04-26T07:43:27.977Z</time></trkpt><trkpt lat="41.0443717" lon="16.7937667"><ele>105.0</ele><time>2026-04-26T07:43:29.976Z</time></trkpt><trkpt lat="41.04429" lon="16.793775"><ele>105.0</ele><time>2026-04-26T07:43:31.976Z</time></trkpt><trkpt lat="41.0442117" lon="16.7937883"><ele>105.0</ele><time>2026-04-26T07:43:33.976Z</time></trkpt><trkpt lat="41.044125" lon="16.7938033"><ele>105.0</ele><time>2026-04-26T07:43:35.977Z</time></trkpt><trkpt lat="41.0440317" lon="16.7938333"><ele>105.0</ele><time>2026-04-26T07:43:37.977Z</time></trkpt><trkpt lat="41.0439383" lon="16.7938583"><ele>104.8</ele><time>2026-04-26T07:43:39.977Z</time></trkpt><trkpt lat="41.04385" lon="16.793875"><ele>104.6</ele><time>2026-04-26T07:43:41.976Z</time></trkpt><trkpt lat="41.04375" lon="16.793905"><ele>104.4</ele><time>2026-04-26T07:43:43.977Z</time></trkpt><trkpt lat="41.0436583" lon="16.793925"><ele>104.2</ele><time>2026-04-26T07:43:45.977Z</time></trkpt><trkpt lat="41.0435533" lon="16.7939567"><ele>104.0</ele><time>2026-04-26T07:43:47.977Z</time></trkpt><trkpt lat="41.0434517" lon="16.793985"><ele>104.0</ele><time>2026-04-26T07:43:49.976Z</time></trkpt><trkpt lat="41.0433533" lon="16.7940067"><ele>104.0</ele><time>2026-04-26T07:43:51.977Z</time></trkpt><trkpt lat="41.0432517" lon="16.7940383"><ele>104.0</ele><time>2026-04-26T07:43:53.977Z</time></trkpt><trkpt lat="41.043155" lon="16.794065"><ele>104.0</ele><time>2026-04-26T07:43:55.977Z</time></trkpt><trkpt lat="41.0430617" lon="16.7941"><ele>104.0</ele><time>2026-04-26T07:43:57.977Z</time></trkpt><trkpt lat="41.042965" lon="16.7941217"><ele>104.0</ele><time>2026-04-26T07:43:59.977Z</time></trkpt><trkpt lat="41.0428667" lon="16.7941483"><ele>104.0</ele><time>2026-04-26T07:44:01.977Z</time></trkpt><trkpt lat="41.042765" lon="16.79418"><ele>104.0</ele><time>2026-04-26T07:44:03.976Z</time></trkpt><trkpt lat="41.0426717" lon="16.794205"><ele>104.0</ele><time>2026-04-26T07:44:05.977Z</time></trkpt><trkpt lat="41.0425683" lon="16.7942333"><ele>104.0</ele><time>2026-04-26T07:44:07.976Z</time></trkpt><trkpt lat="41.042465" lon="16.794265"><ele>104.0</ele><time>2026-04-26T07:44:09.977Z</time></trkpt><trkpt lat="41.0423567" lon="16.794305"><ele>104.0</ele><time>2026-04-26T07:44:11.976Z</time></trkpt><trkpt lat="41.0422533" lon="16.794315"><ele>104.0</ele><time>2026-04-26T07:44:13.977Z</time></trkpt><trkpt lat="41.042155" lon="16.7943367"><ele>104.0</ele><time>2026-04-26T07:44:15.976Z</time></trkpt><trkpt lat="41.0420517" lon="16.7943517"><ele>104.0</ele><time>2026-04-26T07:44:17.977Z</time></trkpt><trkpt lat="41.0419467" lon="16.7943733"><ele>104.2</ele><time>2026-04-26T07:44:19.977Z</time></trkpt><trkpt lat="41.041835" lon="16.7943917"><ele>104.4</ele><time>2026-04-26T07:44:21.976Z</time></trkpt><trkpt lat="41.041725" lon="16.794405"><ele>104.6</ele><time>2026-04-26T07:44:23.977Z</time></trkpt><trkpt lat="41.04162" lon="16.7944083"><ele>104.8</ele><time>2026-04-26T07:44:25.976Z</time></trkpt><trkpt lat="41.041515" lon="16.7944217"><ele>105.0</ele><time>2026-04-26T07:44:27.977Z</time></trkpt><trkpt lat="41.041415" lon="16.7944267"><ele>105.16666666666667</ele><time>2026-04-26T07:44:29.977Z</time></trkpt><trkpt lat="41.0413217" lon="16.7944383"><ele>105.33333333333334</ele><time>2026-04-26T07:44:31.976Z</time></trkpt><trkpt lat="41.0412333" lon="16.7944467"><ele>105.5</ele><time>2026-04-26T07:44:33.977Z</time></trkpt><trkpt lat="41.0411467" lon="16.7944633"><ele>105.66666666666667</ele><time>2026-04-26T07:44:35.977Z</time></trkpt><trkpt lat="41.0410583" lon="16.7944683"><ele>105.83333333333334</ele><time>2026-04-26T07:44:37.977Z</time></trkpt><trkpt lat="41.0409733" lon="16.7944683"><ele>106.0</ele><time>2026-04-26T07:44:39.976Z</time></trkpt><trkpt lat="41.0408783" lon="16.7944883"><ele>106.4</ele><time>2026-04-26T07:44:41.976Z</time></trkpt><trkpt lat="41.0407867" lon="16.7944983"><ele>106.8</ele><time>2026-04-26T07:44:43.977Z</time></trkpt><trkpt lat="41.0406983" lon="16.7945117"><ele>107.20000000000002</ele><time>2026-04-26T07:44:45.976Z</time></trkpt><trkpt lat="41.0406133" lon="16.7945183"><ele>107.60000000000001</ele><time>2026-04-26T07:44:47.977Z</time></trkpt><trkpt lat="41.040525" lon="16.7945267"><ele>108.0</ele><time>2026-04-26T07:44:49.977Z</time></trkpt><trkpt lat="41.0404267" lon="16.7945517"><ele>108.0</ele><time>2026-04-26T07:44:51.977Z</time></trkpt><trkpt lat="41.0403317" lon="16.7945667"><ele>108.00000000000001</ele><time>2026-04-26T07:44:53.976Z</time></trkpt><trkpt lat="41.0402383" lon="16.7945933"><ele>108.00000000000001</ele><time>2026-04-26T07:44:55.977Z</time></trkpt><trkpt lat="41.0401483" lon="16.7946217"><ele>108.0</ele><time>2026-04-26T07:44:57.976Z</time></trkpt><trkpt lat="41.0400567" lon="16.794655"><ele>108.0</ele><time>2026-04-26T07:44:59.976Z</time></trkpt><trkpt lat="41.0399633" lon="16.7946817"><ele>107.80000000000001</ele><time>2026-04-26T07:45:01.977Z</time></trkpt><trkpt lat="41.0398717" lon="16.7947167"><ele>107.60000000000001</ele><time>2026-04-26T07:45:03.976Z</time></trkpt><trkpt lat="41.0397733" lon="16.79474"><ele>107.39999999999999</ele><time>2026-04-26T07:45:05.976Z</time></trkpt><trkpt lat="41.039675" lon="16.79477"><ele>107.19999999999999</ele><time>2026-04-26T07:45:07.977Z</time></trkpt><trkpt lat="41.0395933" lon="16.7947917"><ele>107.0</ele><time>2026-04-26T07:45:09.976Z</time></trkpt><trkpt lat="41.0395133" lon="16.7947917"><ele>106.99999999999999</ele><time>2026-04-26T07:45:11.977Z</time></trkpt><trkpt lat="41.0394533" lon="16.794865"><ele>107.0</ele><time>2026-04-26T07:45:14.976Z</time></trkpt><trkpt lat="41.0395283" lon="16.7948817"><ele>107.0</ele><time>2026-04-26T07:45:17.976Z</time></trkpt><trkpt lat="41.0396067" lon="16.7948417"><ele>107.0</ele><time>2026-04-26T07:45:19.977Z</time></trkpt><trkpt lat="41.0396817" lon="16.79481"><ele>106.99999999999999</ele><time>2026-04-26T07:45:21.977Z</time></trkpt><trkpt lat="41.039755" lon="16.794775"><ele>107.0</ele><time>2026-04-26T07:45:23.977Z</time></trkpt><trkpt lat="41.039835" lon="16.794755"><ele>106.99999999999999</ele><time>2026-04-26T07:45:25.977Z</time></trkpt><trkpt lat="41.0399133" lon="16.79473"><ele>107.0</ele><time>2026-04-26T07:45:27.977Z</time></trkpt><trkpt lat="41.039995" lon="16.7947067"><ele>107.0</ele><time>2026-04-26T07:45:29.976Z</time></trkpt><trkpt lat="41.0400783" lon="16.79467"><ele>107.0</ele><time>2026-04-26T07:45:31.977Z</time></trkpt><trkpt lat="41.0401483" lon="16.7946483"><ele>106.99999999999999</ele><time>2026-04-26T07:45:33.976Z</time></trkpt><trkpt lat="41.040225" lon="16.7946317"><ele>107.0</ele><time>2026-04-26T07:45:35.977Z</time></trkpt><trkpt lat="41.040295" lon="16.79462"><ele>107.16666666666666</ele><time>2026-04-26T07:45:37.977Z</time></trkpt><trkpt lat="41.0403683" lon="16.7946133"><ele>107.33333333333333</ele><time>2026-04-26T07:45:40.976Z</time></trkpt><trkpt lat="41.0404367" lon="16.7945867"><ele>107.5</ele><time>2026-04-26T07:46:35.976Z</time></trkpt><trkpt lat="41.0404983" lon="16.7945583"><ele>107.66666666666666</ele><time>2026-04-26T07:46:37.977Z</time></trkpt><trkpt lat="41.0405683" lon="16.79455"><ele>107.83333333333333</ele><time>2026-04-26T07:46:39.976Z</time></trkpt><trkpt lat="41.0406483" lon="16.7945383"><ele>108.0</ele><time>2026-04-26T07:46:41.977Z</time></trkpt><trkpt lat="41.0407383" lon="16.7945167"><ele>107.60000000000001</ele><time>2026-04-26T07:46:43.976Z</time></trkpt><trkpt lat="41.0408267" lon="16.794515"><ele>107.20000000000002</ele><time>2026-04-26T07:46:45.976Z</time></trkpt><trkpt lat="41.0409283" lon="16.794505"><ele>106.8</ele><time>2026-04-26T07:46:47.977Z</time></trkpt><trkpt lat="41.041035" lon="16.7944917"><ele>106.4</ele><time>2026-04-26T07:46:49.977Z</time></trkpt><trkpt lat="41.0411433" lon="16.79448"><ele>106.0</ele><time>2026-04-26T07:46:51.976Z</time></trkpt><trkpt lat="41.0412483" lon="16.7944833"><ele>106.0</ele><time>2026-04-26T07:46:53.977Z</time></trkpt><trkpt lat="41.0413633" lon="16.7944717"><ele>106.0</ele><time>2026-04-26T07:46:55.976Z</time></trkpt><trkpt lat="41.0414733" lon="16.79446"><ele>106.0</ele><time>2026-04-26T07:46:57.976Z</time></trkpt><trkpt lat="41.04158" lon="16.7944483"><ele>106.0</ele><time>2026-04-26T07:46:59.977Z</time></trkpt><trkpt lat="41.0416933" lon="16.7944433"><ele>106.0</ele><time>2026-04-26T07:47:01.977Z</time></trkpt><trkpt lat="41.04181" lon="16.794435"><ele>105.75</ele><time>2026-04-26T07:47:03.977Z</time></trkpt><trkpt lat="41.041925" lon="16.7944083"><ele>105.5</ele><time>2026-04-26T07:47:05.976Z</time></trkpt><trkpt lat="41.0420483" lon="16.7943883"><ele>105.25</ele><time>2026-04-26T07:47:07.977Z</time></trkpt><trkpt lat="41.0421717" lon="16.7943567"><ele>105.0</ele><time>2026-04-26T07:47:09.976Z</time></trkpt><trkpt lat="41.0422867" lon="16.79434"><ele>104.8</ele><time>2026-04-26T07:47:11.976Z</time></trkpt><trkpt lat="41.042405" lon="16.794305"><ele>104.6</ele><time>2026-04-26T07:47:13.977Z</time></trkpt><trkpt lat="41.0424683" lon="16.7942933"><ele>104.4</ele><time>2026-04-26T07:47:14.976Z</time></trkpt><trkpt lat="41.0425933" lon="16.7942583"><ele>104.2</ele><time>2026-04-26T07:47:16.976Z</time></trkpt><trkpt lat="41.0427133" lon="16.7942233"><ele>104.0</ele><time>2026-04-26T07:47:18.977Z</time></trkpt><trkpt lat="41.042775" lon="16.794205"><ele>103.99999999999999</ele><time>2026-04-26T07:47:19.976Z</time></trkpt><trkpt lat="41.042895" lon="16.7941633"><ele>104.0</ele><time>2026-04-26T07:47:21.976Z</time></trkpt><trkpt lat="41.0429567" lon="16.7941433"><ele>104.0</ele><time>2026-04-26T07:47:22.977Z</time></trkpt><trkpt lat="41.0430233" lon="16.7941283"><ele>104.0</ele><time>2026-04-26T07:47:23.976Z</time></trkpt><trkpt lat="41.0430883" lon="16.79411"><ele>103.99999999999999</ele><time>2026-04-26T07:47:24.976Z</time></trkpt><trkpt lat="41.04315" lon="16.7940883"><ele>104.0</ele><time>2026-04-26T07:47:25.977Z</time></trkpt><trkpt lat="41.043265" lon="16.7940567"><ele>104.0</ele><time>2026-04-26T07:47:27.977Z</time></trkpt><trkpt lat="41.0433833" lon="16.7940217"><ele>104.0</ele><time>2026-04-26T07:47:29.977Z</time></trkpt><trkpt lat="41.0434467" lon="16.7939983"><ele>104.0</ele><time>2026-04-26T07:47:30.977Z</time></trkpt><trkpt lat="41.04351" lon="16.7939833"><ele>104.0</ele><time>2026-04-26T07:47:31.977Z</time></trkpt><trkpt lat="41.0436317" lon="16.7939617"><ele>104.0</ele><time>2026-04-26T07:47:33.977Z</time></trkpt><trkpt lat="41.0437533" lon="16.7939167"><ele>104.0</ele><time>2026-04-26T07:47:35.976Z</time></trkpt><trkpt lat="41.043865" lon="16.7938867"><ele>104.0</ele><time>2026-04-26T07:47:37.977Z</time></trkpt><trkpt lat="41.0439767" lon="16.7938633"><ele>104.0</ele><time>2026-04-26T07:47:39.977Z</time></trkpt><trkpt lat="41.0440933" lon="16.79384"><ele>104.0</ele><time>2026-04-26T07:47:41.977Z</time></trkpt><trkpt lat="41.0441567" lon="16.7938283"><ele>104.0</ele><time>2026-04-26T07:47:42.976Z</time></trkpt><trkpt lat="41.04422" lon="16.79382"><ele>104.2</ele><time>2026-04-26T07:47:43.977Z</time></trkpt><trkpt lat="41.0443417" lon="16.7937967"><ele>104.4</ele><time>2026-04-26T07:47:45.977Z</time></trkpt><trkpt lat="41.044405" lon="16.7937883"><ele>104.6</ele><time>2026-04-26T07:47:46.977Z</time></trkpt><trkpt lat="41.04453" lon="16.7937883"><ele>104.8</ele><time>2026-04-26T07:47:48.977Z</time></trkpt><trkpt lat="41.0446483" lon="16.7937983"><ele>105.0</ele><time>2026-04-26T07:47:50.977Z</time></trkpt><trkpt lat="41.04477" lon="16.7938067"><ele>105.0</ele><time>2026-04-26T07:47:52.977Z</time></trkpt><trkpt lat="41.0448933" lon="16.7938267"><ele>105.0</ele><time>2026-04-26T07:47:54.976Z</time></trkpt><trkpt lat="41.0449967" lon="16.7938717"><ele>105.0</ele><time>2026-04-26T07:47:56.976Z</time></trkpt><trkpt lat="41.0451083" lon="16.7939183"><ele>105.0</ele><time>2026-04-26T07:47:58.977Z</time></trkpt><trkpt lat="41.0452217" lon="16.7939833"><ele>105.0</ele><time>2026-04-26T07:48:00.976Z</time></trkpt><trkpt lat="41.0453367" lon="16.7940383"><ele>105.0</ele><time>2026-04-26T07:48:02.977Z</time></trkpt><trkpt lat="41.045395" lon="16.79407"><ele>105.0</ele><time>2026-04-26T07:48:03.977Z</time></trkpt><trkpt lat="41.0455067" lon="16.7941333"><ele>105.0</ele><time>2026-04-26T07:48:05.977Z</time></trkpt><trkpt lat="41.045615" lon="16.79419"><ele>105.0</ele><time>2026-04-26T07:48:07.976Z</time></trkpt><trkpt lat="41.045715" lon="16.7942483"><ele>104.75</ele><time>2026-04-26T07:48:09.977Z</time></trkpt><trkpt lat="41.045825" lon="16.794305"><ele>104.5</ele><time>2026-04-26T07:48:11.977Z</time></trkpt><trkpt lat="41.0459317" lon="16.7943567"><ele>104.25</ele><time>2026-04-26T07:48:13.977Z</time></trkpt><trkpt lat="41.0460417" lon="16.7944"><ele>104.0</ele><time>2026-04-26T07:48:15.977Z</time></trkpt><trkpt lat="41.0461517" lon="16.7944467"><ele>104.0</ele><time>2026-04-26T07:48:17.976Z</time></trkpt><trkpt lat="41.0462717" lon="16.79448"><ele>104.0</ele><time>2026-04-26T07:48:19.976Z</time></trkpt><trkpt lat="41.046385" lon="16.794495"><ele>104.0</ele><time>2026-04-26T07:48:21.977Z</time></trkpt><trkpt lat="41.0465033" lon="16.7945067"><ele>104.0</ele><time>2026-04-26T07:48:23.977Z</time></trkpt><trkpt lat="41.0466167" lon="16.794515"><ele>103.4</ele><time>2026-04-26T07:48:25.977Z</time></trkpt><trkpt lat="41.04673" lon="16.7945117"><ele>102.80000000000001</ele><time>2026-04-26T07:48:27.977Z</time></trkpt><trkpt lat="41.0468417" lon="16.7944983"><ele>102.19999999999999</ele><time>2026-04-26T07:48:29.977Z</time></trkpt><trkpt lat="41.0469517" lon="16.7944867"><ele>101.6</ele><time>2026-04-26T07:48:31.976Z</time></trkpt><trkpt lat="41.04706" lon="16.7944767"><ele>101.0</ele><time>2026-04-26T07:48:33.976Z</time></trkpt><trkpt lat="41.047175" lon="16.7944683"><ele>101.0</ele><time>2026-04-26T07:48:35.977Z</time></trkpt><trkpt lat="41.0472933" lon="16.79445"><ele>101.0</ele><time>2026-04-26T07:48:37.977Z</time></trkpt><trkpt lat="41.0474083" lon="16.794445"><ele>101.0</ele><time>2026-04-26T07:48:39.976Z</time></trkpt><trkpt lat="41.0475217" lon="16.7944317"><ele>101.0</ele><time>2026-04-26T07:48:41.976Z</time></trkpt><trkpt lat="41.0476317" lon="16.794425"><ele>101.0</ele><time>2026-04-26T07:48:43.977Z</time></trkpt><trkpt lat="41.0477533" lon="16.7944267"><ele>101.0</ele><time>2026-04-26T07:48:45.976Z</time></trkpt><trkpt lat="41.0478717" lon="16.794425"><ele>101.0</ele><time>2026-04-26T07:48:47.976Z</time></trkpt><trkpt lat="41.0479917" lon="16.7944183"><ele>101.0</ele><time>2026-04-26T07:48:49.977Z</time></trkpt><trkpt lat="41.04811" lon="16.7944267"><ele>101.0</ele><time>2026-04-26T07:48:51.976Z</time></trkpt><trkpt lat="41.04822" lon="16.7944517"><ele>101.0</ele><time>2026-04-26T07:48:53.977Z</time></trkpt><trkpt lat="41.048335" lon="16.7944783"><ele>101.0</ele><time>2026-04-26T07:48:55.977Z</time></trkpt><trkpt lat="41.04845" lon="16.794505"><ele>101.0</ele><time>2026-04-26T07:48:57.976Z</time></trkpt><trkpt lat="41.048565" lon="16.7945383"><ele>100.75</ele><time>2026-04-26T07:48:59.976Z</time></trkpt><trkpt lat="41.0486767" lon="16.7945667"><ele>100.5</ele><time>2026-04-26T07:49:01.976Z</time></trkpt><trkpt lat="41.0487967" lon="16.7945933"><ele>100.25</ele><time>2026-04-26T07:49:03.976Z</time></trkpt><trkpt lat="41.0489167" lon="16.7946167"><ele>100.0</ele><time>2026-04-26T07:49:05.976Z</time></trkpt><trkpt lat="41.04904" lon="16.7946417"><ele>99.4</ele><time>2026-04-26T07:49:07.976Z</time></trkpt><trkpt lat="41.049165" lon="16.7946733"><ele>98.8</ele><time>2026-04-26T07:49:09.975Z</time></trkpt><trkpt lat="41.0492817" lon="16.7946867"><ele>98.19999999999999</ele><time>2026-04-26T07:49:11.976Z</time></trkpt><trkpt lat="41.0494017" lon="16.7947"><ele>97.6</ele><time>2026-04-26T07:49:13.976Z</time></trkpt><trkpt lat="41.0494667" lon="16.7947033"><ele>97.0</ele><time>2026-04-26T07:49:14.975Z</time></trkpt><trkpt lat="41.0495333" lon="16.7947083"><ele>97.0</ele><time>2026-04-26T07:49:15.975Z</time></trkpt><trkpt lat="41.0495967" lon="16.7947117"><ele>97.0</ele><time>2026-04-26T07:49:16.975Z</time></trkpt><trkpt lat="41.0496633" lon="16.794705"><ele>97.0</ele><time>2026-04-26T07:49:17.975Z</time></trkpt><trkpt lat="41.0497817" lon="16.79471"><ele>97.0</ele><time>2026-04-26T07:49:19.975Z</time></trkpt><trkpt lat="41.049845" lon="16.7947167"><ele>97.0</ele><time>2026-04-26T07:49:20.975Z</time></trkpt><trkpt lat="41.0499083" lon="16.7947217"><ele>97.0</ele><time>2026-04-26T07:49:21.975Z</time></trkpt><trkpt lat="41.0499717" lon="16.7947183"><ele>97.0</ele><time>2026-04-26T07:49:22.975Z</time></trkpt><trkpt lat="41.0500917" lon="16.794705"><ele>96.75</ele><time>2026-04-26T07:49:24.976Z</time></trkpt><trkpt lat="41.0502133" lon="16.7946883"><ele>96.5</ele><time>2026-04-26T07:49:26.976Z</time></trkpt><trkpt lat="41.050335" lon="16.7946783"><ele>96.25</ele><time>2026-04-26T07:49:28.976Z</time></trkpt><trkpt lat="41.050455" lon="16.7946583"><ele>96.0</ele><time>2026-04-26T07:49:30.975Z</time></trkpt><trkpt lat="41.0505717" lon="16.7946483"><ele>96.0</ele><time>2026-04-26T07:49:32.976Z</time></trkpt><trkpt lat="41.0506933" lon="16.794635"><ele>96.0</ele><time>2026-04-26T07:49:34.976Z</time></trkpt><trkpt lat="41.050805" lon="16.79462"><ele>96.0</ele><time>2026-04-26T07:49:36.975Z</time></trkpt><trkpt lat="41.0509233" lon="16.7946117"><ele>96.0</ele><time>2026-04-26T07:49:38.976Z</time></trkpt><trkpt lat="41.0509867" lon="16.7946083"><ele>96.0</ele><time>2026-04-26T07:49:39.975Z</time></trkpt><trkpt lat="41.051105" lon="16.7945883"><ele>96.0</ele><time>2026-04-26T07:49:41.976Z</time></trkpt><trkpt lat="41.0512233" lon="16.7945617"><ele>96.0</ele><time>2026-04-26T07:49:43.976Z</time></trkpt><trkpt lat="41.051345" lon="16.7945317"><ele>96.0</ele><time>2026-04-26T07:49:45.975Z</time></trkpt><trkpt lat="41.0514067" lon="16.7945133"><ele>96.0</ele><time>2026-04-26T07:49:46.975Z</time></trkpt><trkpt lat="41.05153" lon="16.794495"><ele>96.0</ele><time>2026-04-26T07:49:48.975Z</time></trkpt><trkpt lat="41.051645" lon="16.794465"><ele>96.0</ele><time>2026-04-26T07:49:50.975Z</time></trkpt><trkpt lat="41.05177" lon="16.7944433"><ele>96.0</ele><time>2026-04-26T07:49:52.975Z</time></trkpt><trkpt lat="41.0518367" lon="16.79443"><ele>96.0</ele><time>2026-04-26T07:49:53.976Z</time></trkpt><trkpt lat="41.0519017" lon="16.7944167"><ele>96.0</ele><time>2026-04-26T07:49:54.976Z</time></trkpt><trkpt lat="41.051965" lon="16.7944033"><ele>96.0</ele><time>2026-04-26T07:49:55.976Z</time></trkpt><trkpt lat="41.0520883" lon="16.7943683"><ele>96.0</ele><time>2026-04-26T07:49:57.975Z</time></trkpt><trkpt lat="41.0522067" lon="16.79434"><ele>96.19999999999999</ele><time>2026-04-26T07:49:59.975Z</time></trkpt><trkpt lat="41.05233" lon="16.7943083"><ele>96.39999999999999</ele><time>2026-04-26T07:50:01.976Z</time></trkpt><trkpt lat="41.0523933" lon="16.7942967"><ele>96.6</ele><time>2026-04-26T07:50:02.976Z</time></trkpt><trkpt lat="41.0525083" lon="16.7942783"><ele>96.8</ele><time>2026-04-26T07:50:04.976Z</time></trkpt><trkpt lat="41.0526267" lon="16.7942583"><ele>97.0</ele><time>2026-04-26T07:50:06.975Z</time></trkpt><trkpt lat="41.0527483" lon="16.79423"><ele>96.5</ele><time>2026-04-26T07:50:08.976Z</time></trkpt><trkpt lat="41.052865" lon="16.7942033"><ele>96.0</ele><time>2026-04-26T07:50:10.976Z</time></trkpt><trkpt lat="41.0529833" lon="16.7941817"><ele>95.5</ele><time>2026-04-26T07:50:12.975Z</time></trkpt><trkpt lat="41.0531067" lon="16.7941583"><ele>95.0</ele><time>2026-04-26T07:50:14.975Z</time></trkpt><trkpt lat="41.053225" lon="16.7941233"><ele>95.0</ele><time>2026-04-26T07:50:16.976Z</time></trkpt><trkpt lat="41.053345" lon="16.794105"><ele>95.0</ele><time>2026-04-26T07:50:18.975Z</time></trkpt><trkpt lat="41.0534083" lon="16.7940933"><ele>95.0</ele><time>2026-04-26T07:50:19.975Z</time></trkpt><trkpt lat="41.053525" lon="16.7940617"><ele>95.0</ele><time>2026-04-26T07:50:21.976Z</time></trkpt><trkpt lat="41.053645" lon="16.7940317"><ele>95.0</ele><time>2026-04-26T07:50:23.975Z</time></trkpt><trkpt lat="41.05376" lon="16.7940067"><ele>95.0</ele><time>2026-04-26T07:50:25.976Z</time></trkpt><trkpt lat="41.0538817" lon="16.7939817"><ele>95.0</ele><time>2026-04-26T07:50:27.975Z</time></trkpt><trkpt lat="41.053945" lon="16.793975"><ele>95.0</ele><time>2026-04-26T07:50:28.976Z</time></trkpt><trkpt lat="41.05406" lon="16.7939467"><ele>95.0</ele><time>2026-04-26T07:50:30.976Z</time></trkpt><trkpt lat="41.0541233" lon="16.7939333"><ele>95.0</ele><time>2026-04-26T07:50:31.975Z</time></trkpt><trkpt lat="41.054185" lon="16.7939133"><ele>95.0</ele><time>2026-04-26T07:50:32.975Z</time></trkpt><trkpt lat="41.05425" lon="16.7938917"><ele>94.57142857142857</ele><time>2026-04-26T07:50:33.975Z</time></trkpt><trkpt lat="41.054365" lon="16.7938417"><ele>94.14285714285714</ele><time>2026-04-26T07:50:35.975Z</time></trkpt><trkpt lat="41.0544267" lon="16.793815"><ele>93.71428571428572</ele><time>2026-04-26T07:50:36.976Z</time></trkpt><trkpt lat="41.0544883" lon="16.7937883"><ele>93.28571428571428</ele><time>2026-04-26T07:50:37.975Z</time></trkpt><trkpt lat="41.0545483" lon="16.79376"><ele>92.85714285714285</ele><time>2026-04-26T07:50:38.976Z</time></trkpt><trkpt lat="41.05461" lon="16.79373"><ele>92.42857142857143</ele><time>2026-04-26T07:50:39.975Z</time></trkpt><trkpt lat="41.0546717" lon="16.7936967"><ele>92.0</ele><time>2026-04-26T07:50:40.976Z</time></trkpt><trkpt lat="41.0547317" lon="16.79366"><ele>92.0</ele><time>2026-04-26T07:50:41.976Z</time></trkpt><trkpt lat="41.05479" lon="16.7936267"><ele>92.0</ele><time>2026-04-26T07:50:42.975Z</time></trkpt><trkpt lat="41.0549033" lon="16.7935667"><ele>92.0</ele><time>2026-04-26T07:50:44.975Z</time></trkpt><trkpt lat="41.0550083" lon="16.7935017"><ele>92.0</ele><time>2026-04-26T07:50:46.975Z</time></trkpt><trkpt lat="41.0551083" lon="16.7934233"><ele>92.0</ele><time>2026-04-26T07:50:48.976Z</time></trkpt><trkpt lat="41.0552017" lon="16.793335"><ele>91.39999999999999</ele><time>2026-04-26T07:50:50.976Z</time></trkpt><trkpt lat="41.0552883" lon="16.793235"><ele>90.8</ele><time>2026-04-26T07:50:52.976Z</time></trkpt><trkpt lat="41.0553617" lon="16.79314"><ele>90.2</ele><time>2026-04-26T07:50:54.975Z</time></trkpt><trkpt lat="41.055425" lon="16.7930583"><ele>89.6</ele><time>2026-04-26T07:50:56.976Z</time></trkpt><trkpt lat="41.0554767" lon="16.7929733"><ele>89.0</ele><time>2026-04-26T07:50:58.976Z</time></trkpt><trkpt lat="41.05553" lon="16.792895"><ele>89.0</ele><time>2026-04-26T07:51:00.976Z</time></trkpt><trkpt lat="41.0555867" lon="16.79282"><ele>89.0</ele><time>2026-04-26T07:51:02.975Z</time></trkpt><trkpt lat="41.055645" lon="16.79273"><ele>89.0</ele><time>2026-04-26T07:51:04.975Z</time></trkpt><trkpt lat="41.0557017" lon="16.7926417"><ele>89.0</ele><time>2026-04-26T07:51:06.976Z</time></trkpt><trkpt lat="41.0557617" lon="16.7925567"><ele>89.0</ele><time>2026-04-26T07:51:08.976Z</time></trkpt><trkpt lat="41.0558217" lon="16.79247"><ele>89.0</ele><time>2026-04-26T07:51:10.976Z</time></trkpt><trkpt lat="41.0558917" lon="16.79239"><ele>89.66666666666667</ele><time>2026-04-26T07:51:12.975Z</time></trkpt><trkpt lat="41.0559533" lon="16.7922967"><ele>90.33333333333334</ele><time>2026-04-26T07:51:14.976Z</time></trkpt><trkpt lat="41.056015" lon="16.7922033"><ele>91.0</ele><time>2026-04-26T07:51:16.976Z</time></trkpt><trkpt lat="41.0560717" lon="16.7921217"><ele>91.66666666666667</ele><time>2026-04-26T07:51:18.976Z</time></trkpt><trkpt lat="41.056125" lon="16.792045"><ele>92.33333333333333</ele><time>2026-04-26T07:51:20.976Z</time></trkpt><trkpt lat="41.056175" lon="16.791975"><ele>93.0</ele><time>2026-04-26T07:51:22.976Z</time></trkpt><trkpt lat="41.0562267" lon="16.791895"><ele>93.16666666666667</ele><time>2026-04-26T07:51:24.976Z</time></trkpt><trkpt lat="41.056285" lon="16.791815"><ele>93.33333333333333</ele><time>2026-04-26T07:51:26.975Z</time></trkpt><trkpt lat="41.056345" lon="16.7917517"><ele>93.5</ele><time>2026-04-26T07:51:28.975Z</time></trkpt><trkpt lat="41.0564183" lon="16.7916817"><ele>93.66666666666666</ele><time>2026-04-26T07:51:30.976Z</time></trkpt><trkpt lat="41.05648" lon="16.79161"><ele>93.83333333333333</ele><time>2026-04-26T07:51:32.976Z</time></trkpt><trkpt lat="41.056555" lon="16.7915417"><ele>94.0</ele><time>2026-04-26T07:51:34.976Z</time></trkpt><trkpt lat="41.0566383" lon="16.7914833"><ele>93.6</ele><time>2026-04-26T07:51:36.976Z</time></trkpt><trkpt lat="41.056715" lon="16.7914267"><ele>93.2</ele><time>2026-04-26T07:51:38.975Z</time></trkpt><trkpt lat="41.0568" lon="16.7913667"><ele>92.8</ele><time>2026-04-26T07:51:40.975Z</time></trkpt><trkpt lat="41.056885" lon="16.791315"><ele>92.39999999999999</ele><time>2026-04-26T07:51:42.975Z</time></trkpt><trkpt lat="41.0569683" lon="16.7912667"><ele>92.0</ele><time>2026-04-26T07:51:44.975Z</time></trkpt><trkpt lat="41.0570533" lon="16.79121"><ele>92.0</ele><time>2026-04-26T07:51:46.975Z</time></trkpt><trkpt lat="41.0571483" lon="16.79116"><ele>92.0</ele><time>2026-04-26T07:51:48.975Z</time></trkpt><trkpt lat="41.0572267" lon="16.791105"><ele>92.0</ele><time>2026-04-26T07:51:50.976Z</time></trkpt><trkpt lat="41.0573117" lon="16.7910633"><ele>92.0</ele><time>2026-04-26T07:51:52.975Z</time></trkpt><trkpt lat="41.0573917" lon="16.7910017"><ele>92.0</ele><time>2026-04-26T07:51:54.976Z</time></trkpt><trkpt lat="41.0574717" lon="16.7909483"><ele>92.0</ele><time>2026-04-26T07:51:56.975Z</time></trkpt><trkpt lat="41.0575683" lon="16.7908983"><ele>92.0</ele><time>2026-04-26T07:51:58.975Z</time></trkpt><trkpt lat="41.0576567" lon="16.790855"><ele>92.0</ele><time>2026-04-26T07:52:00.976Z</time></trkpt><trkpt lat="41.05775" lon="16.7908167"><ele>92.0</ele><time>2026-04-26T07:52:02.975Z</time></trkpt><trkpt lat="41.057845" lon="16.790755"><ele>92.0</ele><time>2026-04-26T07:52:04.975Z</time></trkpt><trkpt lat="41.0579267" lon="16.7906933"><ele>92.0</ele><time>2026-04-26T07:52:06.975Z</time></trkpt><trkpt lat="41.05802" lon="16.790635"><ele>92.0</ele><time>2026-04-26T07:52:08.976Z</time></trkpt><trkpt lat="41.05812" lon="16.7905933"><ele>92.0</ele><time>2026-04-26T07:52:10.976Z</time></trkpt><trkpt lat="41.0582083" lon="16.790545"><ele>92.0</ele><time>2026-04-26T07:52:12.976Z</time></trkpt><trkpt lat="41.0583067" lon="16.7905033"><ele>92.0</ele><time>2026-04-26T07:52:14.975Z</time></trkpt><trkpt lat="41.0584017" lon="16.7904583"><ele>91.8</ele><time>2026-04-26T07:52:16.975Z</time></trkpt><trkpt lat="41.0584983" lon="16.7904117"><ele>91.6</ele><time>2026-04-26T07:52:18.976Z</time></trkpt><trkpt lat="41.0585933" lon="16.79036"><ele>91.39999999999999</ele><time>2026-04-26T07:52:20.976Z</time></trkpt><trkpt lat="41.0586817" lon="16.7903067"><ele>91.19999999999999</ele><time>2026-04-26T07:52:22.975Z</time></trkpt><trkpt lat="41.0587867" lon="16.7902533"><ele>91.0</ele><time>2026-04-26T07:52:24.976Z</time></trkpt><trkpt lat="41.0588867" lon="16.7902117"><ele>91.0</ele><time>2026-04-26T07:52:26.976Z</time></trkpt><trkpt lat="41.058985" lon="16.790165"><ele>91.0</ele><time>2026-04-26T07:52:28.976Z</time></trkpt><trkpt lat="41.0590733" lon="16.7901183"><ele>91.0</ele><time>2026-04-26T07:52:30.976Z</time></trkpt><trkpt lat="41.0591617" lon="16.7900617"><ele>91.0</ele><time>2026-04-26T07:52:32.976Z</time></trkpt><trkpt lat="41.0592567" lon="16.7900233"><ele>91.0</ele><time>2026-04-26T07:52:34.976Z</time></trkpt><trkpt lat="41.0593633" lon="16.7900067"><ele>91.0</ele><time>2026-04-26T07:52:36.976Z</time></trkpt><trkpt lat="41.05947" lon="16.7899917"><ele>91.0</ele><time>2026-04-26T07:52:38.976Z</time></trkpt><trkpt lat="41.0595667" lon="16.7899617"><ele>91.0</ele><time>2026-04-26T07:52:40.976Z</time></trkpt><trkpt lat="41.05966" lon="16.7899267"><ele>91.0</ele><time>2026-04-26T07:52:42.975Z</time></trkpt><trkpt lat="41.0597633" lon="16.78991"><ele>91.0</ele><time>2026-04-26T07:52:44.975Z</time></trkpt><trkpt lat="41.0598667" lon="16.7898983"><ele>90.8</ele><time>2026-04-26T07:52:46.975Z</time></trkpt><trkpt lat="41.0599733" lon="16.789875"><ele>90.6</ele><time>2026-04-26T07:52:48.975Z</time></trkpt><trkpt lat="41.0600883" lon="16.7898667"><ele>90.4</ele><time>2026-04-26T07:52:50.976Z</time></trkpt><trkpt lat="41.0602017" lon="16.7898633"><ele>90.2</ele><time>2026-04-26T07:52:52.976Z</time></trkpt><trkpt lat="41.0603067" lon="16.7898767"><ele>90.0</ele><time>2026-04-26T07:52:54.976Z</time></trkpt><trkpt lat="41.0604083" lon="16.7898717"><ele>90.0</ele><time>2026-04-26T07:52:56.976Z</time></trkpt><trkpt lat="41.0605083" lon="16.789865"><ele>90.0</ele><time>2026-04-26T07:52:58.975Z</time></trkpt><trkpt lat="41.0606133" lon="16.7898683"><ele>90.0</ele><time>2026-04-26T07:53:00.976Z</time></trkpt><trkpt lat="41.0607267" lon="16.7898733"><ele>90.0</ele><time>2026-04-26T07:53:02.975Z</time></trkpt><trkpt lat="41.060825" lon="16.789875"><ele>90.0</ele><time>2026-04-26T07:53:04.976Z</time></trkpt><trkpt lat="41.0609333" lon="16.78988"><ele>90.0</ele><time>2026-04-26T07:53:06.975Z</time></trkpt><trkpt lat="41.0610367" lon="16.7898967"><ele>90.0</ele><time>2026-04-26T07:53:08.975Z</time></trkpt><trkpt lat="41.061145" lon="16.7899333"><ele>90.0</ele><time>2026-04-26T07:53:10.975Z</time></trkpt><trkpt lat="41.0612483" lon="16.7899817"><ele>90.0</ele><time>2026-04-26T07:53:12.976Z</time></trkpt><trkpt lat="41.06135" lon="16.7900267"><ele>90.0</ele><time>2026-04-26T07:53:14.975Z</time></trkpt><trkpt lat="41.06146" lon="16.7900683"><ele>90.0</ele><time>2026-04-26T07:53:16.975Z</time></trkpt><trkpt lat="41.0615567" lon="16.7901367"><ele>90.0</ele><time>2026-04-26T07:53:18.976Z</time></trkpt><trkpt lat="41.0616517" lon="16.7902117"><ele>90.0</ele><time>2026-04-26T07:53:20.975Z</time></trkpt><trkpt lat="41.06176" lon="16.790235"><ele>90.0</ele><time>2026-04-26T07:53:22.976Z</time></trkpt><trkpt lat="41.0618733" lon="16.7902117"><ele>90.0</ele><time>2026-04-26T07:53:24.975Z</time></trkpt><trkpt lat="41.061985" lon="16.790215"><ele>89.8</ele><time>2026-04-26T07:53:26.976Z</time></trkpt><trkpt lat="41.0621033" lon="16.7902317"><ele>89.6</ele><time>2026-04-26T07:53:28.976Z</time></trkpt><trkpt lat="41.0622117" lon="16.7902433"><ele>89.4</ele><time>2026-04-26T07:53:30.975Z</time></trkpt><trkpt lat="41.0623233" lon="16.7902617"><ele>89.2</ele><time>2026-04-26T07:53:32.975Z</time></trkpt><trkpt lat="41.0624317" lon="16.7902767"><ele>89.0</ele><time>2026-04-26T07:53:34.976Z</time></trkpt><trkpt lat="41.0625417" lon="16.7903"><ele>88.5</ele><time>2026-04-26T07:53:36.976Z</time></trkpt><trkpt lat="41.062655" lon="16.7903183"><ele>88.0</ele><time>2026-04-26T07:53:38.975Z</time></trkpt><trkpt lat="41.062775" lon="16.7903433"><ele>87.5</ele><time>2026-04-26T07:53:40.975Z</time></trkpt><trkpt lat="41.06288" lon="16.7903817"><ele>87.0</ele><time>2026-04-26T07:53:42.976Z</time></trkpt><trkpt lat="41.0629917" lon="16.79042"><ele>87.0</ele><time>2026-04-26T07:53:44.976Z</time></trkpt><trkpt lat="41.0631033" lon="16.7904483"><ele>87.0</ele><time>2026-04-26T07:53:46.976Z</time></trkpt><trkpt lat="41.063205" lon="16.7904817"><ele>87.0</ele><time>2026-04-26T07:53:48.975Z</time></trkpt><trkpt lat="41.0633133" lon="16.7905133"><ele>87.0</ele><time>2026-04-26T07:53:50.976Z</time></trkpt><trkpt lat="41.0634183" lon="16.790535"><ele>87.0</ele><time>2026-04-26T07:53:52.976Z</time></trkpt><trkpt lat="41.0635183" lon="16.7905567"><ele>86.8</ele><time>2026-04-26T07:53:54.975Z</time></trkpt><trkpt lat="41.06362" lon="16.7905783"><ele>86.6</ele><time>2026-04-26T07:53:56.976Z</time></trkpt><trkpt lat="41.06372" lon="16.7906083"><ele>86.39999999999999</ele><time>2026-04-26T07:53:58.976Z</time></trkpt><trkpt lat="41.0638217" lon="16.7906367"><ele>86.19999999999999</ele><time>2026-04-26T07:54:00.975Z</time></trkpt><trkpt lat="41.0639283" lon="16.790655"><ele>86.0</ele><time>2026-04-26T07:54:02.975Z</time></trkpt><trkpt lat="41.0640383" lon="16.79067"><ele>86.19999999999999</ele><time>2026-04-26T07:54:04.975Z</time></trkpt><trkpt lat="41.0641283" lon="16.79067"><ele>86.39999999999999</ele><time>2026-04-26T07:54:06.975Z</time></trkpt><trkpt lat="41.06423" lon="16.7906483"><ele>86.6</ele><time>2026-04-26T07:54:08.975Z</time></trkpt><trkpt lat="41.0643317" lon="16.79061"><ele>86.8</ele><time>2026-04-26T07:54:10.975Z</time></trkpt><trkpt lat="41.0644317" lon="16.7905533"><ele>87.0</ele><time>2026-04-26T07:54:12.975Z</time></trkpt><trkpt lat="41.064525" lon="16.7904667"><ele>87.0</ele><time>2026-04-26T07:54:14.975Z</time></trkpt><trkpt lat="41.0646133" lon="16.7903717"><ele>87.0</ele><time>2026-04-26T07:54:16.976Z</time></trkpt><trkpt lat="41.0647" lon="16.790275"><ele>87.0</ele><time>2026-04-26T07:54:18.976Z</time></trkpt><trkpt lat="41.064785" lon="16.7901683"><ele>87.0</ele><time>2026-04-26T07:54:20.975Z</time></trkpt><trkpt lat="41.0648667" lon="16.79007"><ele>86.6</ele><time>2026-04-26T07:54:22.975Z</time></trkpt><trkpt lat="41.0649517" lon="16.7899683"><ele>86.19999999999999</ele><time>2026-04-26T07:54:24.976Z</time></trkpt><trkpt lat="41.0650267" lon="16.789885"><ele>85.8</ele><time>2026-04-26T07:54:26.975Z</time></trkpt><trkpt lat="41.065105" lon="16.7897883"><ele>85.4</ele><time>2026-04-26T07:54:28.975Z</time></trkpt><trkpt lat="41.06519" lon="16.7896867"><ele>85.0</ele><time>2026-04-26T07:54:30.976Z</time></trkpt><trkpt lat="41.0652683" lon="16.789585"><ele>85.0</ele><time>2026-04-26T07:54:32.976Z</time></trkpt><trkpt lat="41.0653467" lon="16.78949"><ele>85.0</ele><time>2026-04-26T07:54:34.975Z</time></trkpt><trkpt lat="41.06543" lon="16.7893983"><ele>85.0</ele><time>2026-04-26T07:54:36.976Z</time></trkpt><trkpt lat="41.065515" lon="16.7893"><ele>85.0</ele><time>2026-04-26T07:54:38.975Z</time></trkpt><trkpt lat="41.065595" lon="16.7892"><ele>85.0</ele><time>2026-04-26T07:54:40.976Z</time></trkpt><trkpt lat="41.0656717" lon="16.7891017"><ele>84.6</ele><time>2026-04-26T07:54:42.976Z</time></trkpt><trkpt lat="41.0657467" lon="16.7890067"><ele>84.2</ele><time>2026-04-26T07:54:44.976Z</time></trkpt><trkpt lat="41.0658267" lon="16.7889133"><ele>83.80000000000001</ele><time>2026-04-26T07:54:46.975Z</time></trkpt><trkpt lat="41.0658967" lon="16.78882"><ele>83.4</ele><time>2026-04-26T07:54:48.975Z</time></trkpt><trkpt lat="41.0659683" lon="16.7887117"><ele>83.0</ele><time>2026-04-26T07:54:50.975Z</time></trkpt><trkpt lat="41.0660367" lon="16.7886017"><ele>82.2</ele><time>2026-04-26T07:54:52.975Z</time></trkpt><trkpt lat="41.066105" lon="16.788495"><ele>81.4</ele><time>2026-04-26T07:54:54.976Z</time></trkpt><trkpt lat="41.06618" lon="16.788395"><ele>80.60000000000001</ele><time>2026-04-26T07:54:56.976Z</time></trkpt><trkpt lat="41.0662583" lon="16.7882817"><ele>79.80000000000001</ele><time>2026-04-26T07:54:58.976Z</time></trkpt><trkpt lat="41.0663467" lon="16.7881717"><ele>79.0</ele><time>2026-04-26T07:55:00.976Z</time></trkpt><trkpt lat="41.0664483" lon="16.7880933"><ele>79.0</ele><time>2026-04-26T07:55:02.976Z</time></trkpt><trkpt lat="41.0665667" lon="16.788055"><ele>79.0</ele><time>2026-04-26T07:55:04.976Z</time></trkpt><trkpt lat="41.0666317" lon="16.7880433"><ele>79.0</ele><time>2026-04-26T07:55:05.975Z</time></trkpt><trkpt lat="41.0667317" lon="16.78804"><ele>79.0</ele><time>2026-04-26T07:55:07.976Z</time></trkpt><trkpt lat="41.0668317" lon="16.788065"><ele>79.0</ele><time>2026-04-26T07:55:09.976Z</time></trkpt><trkpt lat="41.066935" lon="16.7881"><ele>79.2</ele><time>2026-04-26T07:55:11.975Z</time></trkpt><trkpt lat="41.06703" lon="16.7881633"><ele>79.4</ele><time>2026-04-26T07:55:13.975Z</time></trkpt><trkpt lat="41.0671133" lon="16.7882433"><ele>79.6</ele><time>2026-04-26T07:55:15.975Z</time></trkpt><trkpt lat="41.0671917" lon="16.788335"><ele>79.8</ele><time>2026-04-26T07:55:17.976Z</time></trkpt><trkpt lat="41.0672567" lon="16.78845"><ele>80.0</ele><time>2026-04-26T07:55:19.976Z</time></trkpt><trkpt lat="41.067305" lon="16.7885783"><ele>80.16666666666667</ele><time>2026-04-26T07:55:21.976Z</time></trkpt><trkpt lat="41.06735" lon="16.7887133"><ele>80.33333333333334</ele><time>2026-04-26T07:55:23.976Z</time></trkpt><trkpt lat="41.0673967" lon="16.7888583"><ele>80.5</ele><time>2026-04-26T07:55:25.975Z</time></trkpt><trkpt lat="41.0674333" lon="16.7889283"><ele>80.66666666666667</ele><time>2026-04-26T07:55:26.975Z</time></trkpt><trkpt lat="41.067475" lon="16.7889983"><ele>80.83333333333333</ele><time>2026-04-26T07:55:27.976Z</time></trkpt><trkpt lat="41.06753" lon="16.78908"><ele>81.0</ele><time>2026-04-26T07:55:28.975Z</time></trkpt><trkpt lat="41.0675967" lon="16.78915"><ele>80.2</ele><time>2026-04-26T07:55:29.976Z</time></trkpt><trkpt lat="41.06767" lon="16.7892083"><ele>79.39999999999999</ele><time>2026-04-26T07:55:30.975Z</time></trkpt><trkpt lat="41.067755" lon="16.7892433"><ele>78.6</ele><time>2026-04-26T07:55:31.975Z</time></trkpt><trkpt lat="41.0678517" lon="16.7892733"><ele>77.8</ele><time>2026-04-26T07:55:32.976Z</time></trkpt><trkpt lat="41.0679567" lon="16.7892833"><ele>77.0</ele><time>2026-04-26T07:55:33.975Z</time></trkpt><trkpt lat="41.0680583" lon="16.7892883"><ele>77.0</ele><time>2026-04-26T07:55:34.976Z</time></trkpt><trkpt lat="41.06816" lon="16.7892917"><ele>77.0</ele><time>2026-04-26T07:55:35.976Z</time></trkpt><trkpt lat="41.068255" lon="16.7893083"><ele>77.0</ele><time>2026-04-26T07:55:36.975Z</time></trkpt><trkpt lat="41.0683483" lon="16.78932"><ele>77.0</ele><time>2026-04-26T07:55:37.976Z</time></trkpt><trkpt lat="41.0684367" lon="16.7893333"><ele>77.0</ele><time>2026-04-26T07:55:38.975Z</time></trkpt><trkpt lat="41.0685183" lon="16.7893533"><ele>76.57142857142857</ele><time>2026-04-26T07:55:39.976Z</time></trkpt><trkpt lat="41.0686" lon="16.7893617"><ele>76.14285714285714</ele><time>2026-04-26T07:55:40.976Z</time></trkpt><trkpt lat="41.0686817" lon="16.7893633"><ele>75.71428571428572</ele><time>2026-04-26T07:55:41.975Z</time></trkpt><trkpt lat="41.0687533" lon="16.78937"><ele>75.28571428571428</ele><time>2026-04-26T07:55:42.976Z</time></trkpt><trkpt lat="41.068825" lon="16.789355"><ele>74.85714285714286</ele><time>2026-04-26T07:55:43.976Z</time></trkpt><trkpt lat="41.06889" lon="16.7893367"><ele>74.42857142857143</ele><time>2026-04-26T07:55:44.976Z</time></trkpt><trkpt lat="41.0689467" lon="16.7893"><ele>74.0</ele><time>2026-04-26T07:55:45.976Z</time></trkpt><trkpt lat="41.0690183" lon="16.789195"><ele>73.8</ele><time>2026-04-26T07:55:47.976Z</time></trkpt><trkpt lat="41.069065" lon="16.7890767"><ele>73.60000000000001</ele><time>2026-04-26T07:55:49.976Z</time></trkpt><trkpt lat="41.0691033" lon="16.788965"><ele>73.4</ele><time>2026-04-26T07:55:51.975Z</time></trkpt><trkpt lat="41.0691417" lon="16.7888533"><ele>73.2</ele><time>2026-04-26T07:55:53.976Z</time></trkpt><trkpt lat="41.0691817" lon="16.788735"><ele>73.0</ele><time>2026-04-26T07:55:55.976Z</time></trkpt><trkpt lat="41.069225" lon="16.788615"><ele>73.66666666666666</ele><time>2026-04-26T07:55:57.975Z</time></trkpt><trkpt lat="41.0692633" lon="16.7885017"><ele>74.33333333333333</ele><time>2026-04-26T07:55:59.975Z</time></trkpt><trkpt lat="41.0693083" lon="16.7884117"><ele>75.0</ele><time>2026-04-26T07:56:01.975Z</time></trkpt><trkpt lat="41.0693567" lon="16.788335"><ele>75.66666666666667</ele><time>2026-04-26T07:56:03.975Z</time></trkpt><trkpt lat="41.0694167" lon="16.78827"><ele>76.33333333333334</ele><time>2026-04-26T07:56:05.976Z</time></trkpt><trkpt lat="41.0694767" lon="16.7882167"><ele>77.0</ele><time>2026-04-26T07:56:07.975Z</time></trkpt><trkpt lat="41.0695567" lon="16.788165"><ele>77.0</ele><time>2026-04-26T07:56:10.976Z</time></trkpt><trkpt lat="41.0696417" lon="16.7881033"><ele>77.0</ele><time>2026-04-26T07:56:13.975Z</time></trkpt><trkpt lat="41.069725" lon="16.7880417"><ele>77.0</ele><time>2026-04-26T07:56:16.975Z</time></trkpt><trkpt lat="41.0698033" lon="16.7879933"><ele>77.0</ele><time>2026-04-26T07:56:19.976Z</time></trkpt><trkpt lat="41.069865" lon="16.78795"><ele>77.0</ele><time>2026-04-26T07:56:21.975Z</time></trkpt><trkpt lat="41.0699283" lon="16.7879167"><ele>77.0</ele><time>2026-04-26T07:56:23.975Z</time></trkpt><trkpt lat="41.070015" lon="16.78787"><ele>77.5</ele><time>2026-04-26T07:56:26.975Z</time></trkpt><trkpt lat="41.0701017" lon="16.7878183"><ele>78.0</ele><time>2026-04-26T07:56:29.975Z</time></trkpt><trkpt lat="41.070185" lon="16.7877667"><ele>78.5</ele><time>2026-04-26T07:56:32.975Z</time></trkpt><trkpt lat="41.0702433" lon="16.7877267"><ele>79.0</ele><time>2026-04-26T07:56:34.976Z</time></trkpt><trkpt lat="41.0702967" lon="16.78768"><ele>79.5</ele><time>2026-04-26T07:56:36.976Z</time></trkpt><trkpt lat="41.07035" lon="16.7876117"><ele>80.0</ele><time>2026-04-26T07:56:38.976Z</time></trkpt><trkpt lat="41.0704133" lon="16.78756"><ele>79.85714285714286</ele><time>2026-04-26T07:56:40.975Z</time></trkpt><trkpt lat="41.0704783" lon="16.78751"><ele>79.71428571428572</ele><time>2026-04-26T07:56:42.976Z</time></trkpt><trkpt lat="41.0705333" lon="16.7874533"><ele>79.57142857142858</ele><time>2026-04-26T07:56:44.975Z</time></trkpt><trkpt lat="41.0705917" lon="16.7874017"><ele>79.42857142857143</ele><time>2026-04-26T07:56:46.975Z</time></trkpt><trkpt lat="41.0706517" lon="16.7873533"><ele>79.28571428571429</ele><time>2026-04-26T07:56:48.975Z</time></trkpt><trkpt lat="41.0707183" lon="16.7873117"><ele>79.14285714285715</ele><time>2026-04-26T07:56:50.975Z</time></trkpt><trkpt lat="41.0707933" lon="16.7872783"><ele>79.0</ele><time>2026-04-26T07:56:52.975Z</time></trkpt><trkpt lat="41.07087" lon="16.7872717"><ele>79.0</ele><time>2026-04-26T07:56:54.976Z</time></trkpt><trkpt lat="41.0709483" lon="16.7872717"><ele>79.0</ele><time>2026-04-26T07:56:56.975Z</time></trkpt><trkpt lat="41.0710367" lon="16.78727"><ele>79.0</ele><time>2026-04-26T07:56:58.976Z</time></trkpt><trkpt lat="41.0711283" lon="16.78728"><ele>79.0</ele><time>2026-04-26T07:57:00.976Z</time></trkpt><trkpt lat="41.071215" lon="16.7872817"><ele>79.0</ele><time>2026-04-26T07:57:02.975Z</time></trkpt><trkpt lat="41.0713" lon="16.7872783"><ele>79.0</ele><time>2026-04-26T07:57:04.975Z</time></trkpt><trkpt lat="41.0713867" lon="16.78727"><ele>79.0</ele><time>2026-04-26T07:57:06.976Z</time></trkpt><trkpt lat="41.0714717" lon="16.787265"><ele>79.0</ele><time>2026-04-26T07:57:08.976Z</time></trkpt><trkpt lat="41.071555" lon="16.7872583"><ele>79.0</ele><time>2026-04-26T07:57:10.976Z</time></trkpt><trkpt lat="41.0716267" lon="16.7872567"><ele>79.0</ele><time>2026-04-26T07:57:12.975Z</time></trkpt><trkpt lat="41.0716967" lon="16.78725"><ele>79.0</ele><time>2026-04-26T07:57:14.976Z</time></trkpt><trkpt lat="41.0717817" lon="16.78725"><ele>79.0</ele><time>2026-04-26T07:57:16.976Z</time></trkpt><trkpt lat="41.07186" lon="16.7872467"><ele>78.5</ele><time>2026-04-26T07:57:18.976Z</time></trkpt><trkpt lat="41.071945" lon="16.7872533"><ele>78.0</ele><time>2026-04-26T07:57:20.975Z</time></trkpt><trkpt lat="41.0720367" lon="16.7872733"><ele>77.5</ele><time>2026-04-26T07:57:22.975Z</time></trkpt><trkpt lat="41.07213" lon="16.7873067"><ele>77.0</ele><time>2026-04-26T07:57:24.976Z</time></trkpt><trkpt lat="41.0722067" lon="16.7873517"><ele>76.5</ele><time>2026-04-26T07:57:26.976Z</time></trkpt><trkpt lat="41.07229" lon="16.7873983"><ele>76.0</ele><time>2026-04-26T07:57:28.975Z</time></trkpt><trkpt lat="41.0723633" lon="16.7874633"><ele>76.0</ele><time>2026-04-26T07:57:30.976Z</time></trkpt><trkpt lat="41.07243" lon="16.787525"><ele>76.0</ele><time>2026-04-26T07:57:32.975Z</time></trkpt><trkpt lat="41.0725017" lon="16.7875767"><ele>76.0</ele><time>2026-04-26T07:57:34.976Z</time></trkpt><trkpt lat="41.0725733" lon="16.7875967"><ele>76.0</ele><time>2026-04-26T07:57:36.975Z</time></trkpt><trkpt lat="41.0726383" lon="16.78754"><ele>76.0</ele><time>2026-04-26T07:57:38.976Z</time></trkpt><trkpt lat="41.072675" lon="16.7874467"><ele>76.0</ele><time>2026-04-26T07:57:40.976Z</time></trkpt><trkpt lat="41.0727133" lon="16.7873483"><ele>76.33333333333333</ele><time>2026-04-26T07:57:42.976Z</time></trkpt><trkpt lat="41.0727383" lon="16.7872433"><ele>76.66666666666666</ele><time>2026-04-26T07:57:44.976Z</time></trkpt><trkpt lat="41.07275" lon="16.7871267"><ele>77.0</ele><time>2026-04-26T07:57:46.975Z</time></trkpt><trkpt lat="41.072735" lon="16.7869983"><ele>77.33333333333333</ele><time>2026-04-26T07:57:48.975Z</time></trkpt><trkpt lat="41.0726917" lon="16.7868917"><ele>77.66666666666667</ele><time>2026-04-26T07:57:50.976Z</time></trkpt><trkpt lat="41.0726333" lon="16.7868067"><ele>78.0</ele><time>2026-04-26T07:57:52.975Z</time></trkpt><trkpt lat="41.072585" lon="16.78672"><ele>78.5</ele><time>2026-04-26T07:57:54.975Z</time></trkpt><trkpt lat="41.0725167" lon="16.78665"><ele>79.0</ele><time>2026-04-26T07:57:56.976Z</time></trkpt><trkpt lat="41.0724617" lon="16.7865683"><ele>79.5</ele><time>2026-04-26T07:57:58.975Z</time></trkpt><trkpt lat="41.072425" lon="16.7864667"><ele>80.0</ele><time>2026-04-26T07:58:00.976Z</time></trkpt><trkpt lat="41.0724083" lon="16.7863617"><ele>80.5</ele><time>2026-04-26T07:58:02.976Z</time></trkpt><trkpt lat="41.07239" lon="16.7862533"><ele>81.0</ele><time>2026-04-26T07:58:04.976Z</time></trkpt><trkpt lat="41.0723733" lon="16.786145"><ele>81.0</ele><time>2026-04-26T07:58:06.976Z</time></trkpt><trkpt lat="41.0723533" lon="16.7860417"><ele>81.0</ele><time>2026-04-26T07:58:08.976Z</time></trkpt><trkpt lat="41.072335" lon="16.78594"><ele>82.0</ele><time>2026-04-26T07:58:10.975Z</time></trkpt><trkpt lat="41.07232" lon="16.7858483"><ele>82.0</ele><time>2026-04-26T07:58:12.976Z</time></trkpt><trkpt lat="41.0722967" lon="16.7857317"><ele>82.0</ele><time>2026-04-26T07:58:15.976Z</time></trkpt><trkpt lat="41.0722667" lon="16.78563"><ele>82.0</ele><time>2026-04-26T07:58:18.976Z</time></trkpt></trkseg></trk></gpx>